NOAA Web Site Link Tides and Currents Home Page Transparent placeholder image

PORTS® Data Listing: 8531680 Sandy Hook, NJ

CO-OPS RAW PORTS DATA

************************      PRELIMINARY DATA      ************************** 

     THIS RAW DATA HAS NOT BEEN SUBJECT TO THE NATIONAL OCEAN SERVICE'S        
     QUALITY CONTROL OR QUALITY ASSURANCE PROCEDURES AND DOES NOT MEET         
     THE CRITERIA AND STANDARDS OF OFFICIAL NATIONAL OCEAN SERVICE             
     DATA.  IT IS RELEASED FOR LIMITED PUBLIC USE AS PRELIMINARY DATA TO       
     BE USED ONLY WITH APPROPRIATE CAUTION.                                    

************************      PRELIMINARY DATA      ************************** 


       CD   -   Calendar date
       T    -   Time
       TZ   -   Timezone
       PW   -   Predicted water level (feet above MLLW)
       OW   -   Observed water level (feet above MLLW)
       WS   -   Wind speed (knots)
       WD   -   Wind direction (degrees true)
       WG   -   Wind gust (knots)
       AT   -   Air temperature (degrees farenheit)
       WT   -   Water temperature (degrees farenheit)
       AP   -   Air pressure (millibars)
       SA   -   Salinty (PSU - Practical Salinity Units)
       SG   -   Specific gravity
       RH   -   Relative humidity
       AG   -   Air gap (feet)
       VI   -   Visibility (nautical miles)

       ** NOTE **
       A variable that has its data fields filled with "9"s, indicates that
       data was not collected for that sample period.
       **********


STATION NAME: Sandy Hook (8531680)
****************************************************************************************************
    CD       T    TZ    PW     OW    WS   WD   WG    AT    WT    AP    SA    SG     RH    AG   VI
****************************************************************************************************
2019/05/24 08:00 EDT    1.03   0.92   15  308   18  66.0  64.8 1012.7 -9.9 -9.999 -99.9 -99.99 -9.99
2019/05/24 08:06 EDT    1.10   0.95   15  316   17  66.6  64.8 1012.8 -9.9 -9.999 -99.9 -99.99 -9.99
2019/05/24 08:12 EDT    1.17   1.04   14  307   18  66.2  64.8 1012.7 -9.9 -9.999 -99.9 -99.99 -9.99
2019/05/24 08:18 EDT    1.24   1.12   18  301   26  66.7  64.8 1012.7 -9.9 -9.999 -99.9 -99.99 -9.99
2019/05/24 08:24 EDT    1.32   1.24   17  302   22  66.7  64.8 1012.6 -9.9 -9.999 -99.9 -99.99 -9.99
2019/05/24 08:30 EDT    1.40   1.31   20  309   26  67.1  64.8 1012.7 -9.9 -9.999 -99.9 -99.99 -9.99
2019/05/24 08:36 EDT    1.48   1.37   21  311   23  67.1  64.6 1012.8 -9.9 -9.999 -99.9 -99.99 -9.99
2019/05/24 08:42 EDT    1.57   1.45   23  310   29  67.3  64.6 1012.9 -9.9 -9.999 -99.9 -99.99 -9.99
2019/05/24 08:48 EDT    1.65   1.58   22  309   25  67.5  64.6 1013.0 -9.9 -9.999 -99.9 -99.99 -9.99
2019/05/24 08:54 EDT    1.74   1.66   21  314   28  67.5  64.6 1013.1 -9.9 -9.999 -99.9 -99.99 -9.99
2019/05/24 09:00 EDT    1.82   1.70   17  301   23  66.4  64.4 1013.1 -9.9 -9.999 -99.9 -99.99 -9.99
2019/05/24 09:06 EDT    1.91   1.78   21  297   25  66.2  64.4 1013.0 -9.9 -9.999 -99.9 -99.99 -9.99
2019/05/24 09:12 EDT    1.99   1.85   20  299   23  66.4  64.4 1013.1 -9.9 -9.999 -99.9 -99.99 -9.99
2019/05/24 09:18 EDT    2.08   1.92   18  300   21  65.8  64.4 1013.2 -9.9 -9.999 -99.9 -99.99 -9.99
2019/05/24 09:24 EDT    2.16   1.99   20  302   23  66.0  64.4 1013.2 -9.9 -9.999 -99.9 -99.99 -9.99
2019/05/24 09:30 EDT    2.25   2.11   19  303   23  66.2  64.4 1013.1 -9.9 -9.999 -99.9 -99.99 -9.99
2019/05/24 09:36 EDT    2.33   2.19   20  302   24  66.4  64.4 1013.0 -9.9 -9.999 -99.9 -99.99 -9.99
2019/05/24 09:42 EDT    2.41   2.32   19  302   23  66.7  64.4 1013.0 -9.9 -9.999 -99.9 -99.99 -9.99
2019/05/24 09:48 EDT    2.49   2.36   18  300   20  66.4  64.4 1013.0 -9.9 -9.999 -99.9 -99.99 -9.99
2019/05/24 09:54 EDT    2.57   2.50   18  307   22  66.4  64.4 1013.0 -9.9 -9.999 -99.9 -99.99 -9.99
2019/05/24 10:00 EDT    2.65   2.59   18  304   21  66.4  64.4 1013.1 -9.9 -9.999 -99.9 -99.99 -9.99
2019/05/24 10:06 EDT    2.73   2.62   19  311   22  66.9  64.4 1013.1 -9.9 -9.999 -99.9 -99.99 -9.99
2019/05/24 10:12 EDT    2.80   2.70   18  309   21  66.7  64.4 1013.1 -9.9 -9.999 -99.9 -99.99 -9.99
2019/05/24 10:18 EDT    2.88   2.80   18  312   22  67.1  64.4 1013.2 -9.9 -9.999 -99.9 -99.99 -9.99
2019/05/24 10:24 EDT    2.95   2.88   20  310   25  67.8  64.4 1013.2 -9.9 -9.999 -99.9 -99.99 -9.99
2019/05/24 10:30 EDT    3.02   2.94   17  312   20  67.8  64.4 1013.3 -9.9 -9.999 -99.9 -99.99 -9.99
2019/05/24 10:36 EDT    3.09   3.03   20  310   25  68.5  64.2 1013.3 -9.9 -9.999 -99.9 -99.99 -9.99
2019/05/24 10:42 EDT    3.16   3.13   15  315   25  68.4  64.2 1013.4 -9.9 -9.999 -99.9 -99.99 -9.99
2019/05/24 10:48 EDT    3.23   3.23   20  313   25  68.2  64.2 1013.5 -9.9 -9.999 -99.9 -99.99 -9.99
2019/05/24 10:54 EDT    3.29   3.29   19  316   26  68.7  64.0 1013.4 -9.9 -9.999 -99.9 -99.99 -9.99
2019/05/24 11:00 EDT    3.36   3.38   21  305   24  67.5  64.0 1013.3 -9.9 -9.999 -99.9 -99.99 -9.99
2019/05/24 11:06 EDT    3.42   3.49   22  315   28  68.4  64.0 1013.4 -9.9 -9.999 -99.9 -99.99 -9.99
2019/05/24 11:12 EDT    3.49   3.51   21  319   29  68.4  63.9 1013.6 -9.9 -9.999 -99.9 -99.99 -9.99
2019/05/24 11:18 EDT    3.55   3.59   24  318   27  69.3  63.9 1013.7 -9.9 -9.999 -99.9 -99.99 -9.99
2019/05/24 11:24 EDT    3.61   3.70   21  318   26  68.7  63.9 1013.6 -9.9 -9.999 -99.9 -99.99 -9.99
2019/05/24 11:30 EDT    3.66   3.73   19  315   25  68.2  63.9 1013.7 -9.9 -9.999 -99.9 -99.99 -9.99
2019/05/24 11:36 EDT    3.72   3.77   24  310   27  68.0  63.9 1013.6 -9.9 -9.999 -99.9 -99.99 -9.99
2019/05/24 11:42 EDT    3.77   3.83   25  320   30  69.1  63.9 1013.6 -9.9 -9.999 -99.9 -99.99 -9.99
2019/05/24 11:48 EDT    3.82   3.95   21  320   32  68.9  63.9 1013.6 -9.9 -9.999 -99.9 -99.99 -9.99
2019/05/24 11:54 EDT    3.87   3.95   17  317   22  68.5  63.9 1013.8 -9.9 -9.999 -99.9 -99.99 -9.99
2019/05/24 12:00 EDT    3.92   4.02   20  312   24  67.8  63.9 1013.7 -9.9 -9.999 -99.9 -99.99 -9.99
2019/05/24 12:06 EDT    3.96   4.11   21  320   27  68.5  63.9 1014.0 -9.9 -9.999 -99.9 -99.99 -9.99
2019/05/24 12:12 EDT    4.00   4.11   16  315   22  68.9  63.9 1014.0 -9.9 -9.999 -99.9 -99.99 -9.99
2019/05/24 12:18 EDT    4.04   4.14   22  306   25  68.4  63.9 1013.9 -9.9 -9.999 -99.9 -99.99 -9.99
2019/05/24 12:24 EDT    4.07   4.23   17  312   25  68.7  63.9 1014.1 -9.9 -9.999 -99.9 -99.99 -9.99
2019/05/24 12:30 EDT    4.10   4.24   18  309   21  68.9  64.0 1014.2 -9.9 -9.999 -99.9 -99.99 -9.99
2019/05/24 12:36 EDT    4.13   4.26   17  315   22  68.9  63.9 1014.3 -9.9 -9.999 -99.9 -99.99 -9.99
2019/05/24 12:42 EDT    4.15   4.30   20  317   25  70.0  63.9 1014.3 -9.9 -9.999 -99.9 -99.99 -9.99
2019/05/24 12:48 EDT    4.16   4.32   21  315   26  69.4  64.0 1014.5 -9.9 -9.999 -99.9 -99.99 -9.99
2019/05/24 12:54 EDT    4.17   4.34   22  318   26  70.3  64.0 1014.4 -9.9 -9.999 -99.9 -99.99 -9.99
2019/05/24 13:00 EDT    4.17   4.36   20  313   25  69.4  64.0 1014.4 -9.9 -9.999 -99.9 -99.99 -9.99
2019/05/24 13:06 EDT    4.17   4.36   19  318   26  69.8  64.0 1014.4 -9.9 -9.999 -99.9 -99.99 -9.99
2019/05/24 13:12 EDT    4.17   4.34   18  315   24  69.6  64.0 1014.3 -9.9 -9.999 -99.9 -99.99 -9.99
2019/05/24 13:18 EDT    4.15   4.36   19  315   26  70.5  64.0 1014.3 -9.9 -9.999 -99.9 -99.99 -9.99
2019/05/24 13:24 EDT    4.14   4.31   21  312   26  70.2  64.0 1014.3 -9.9 -9.999 -99.9 -99.99 -9.99
2019/05/24 13:30 EDT    4.11   4.31   23  315   28  70.3  64.0 1014.3 -9.9 -9.999 -99.9 -99.99 -9.99
2019/05/24 13:36 EDT    4.08   4.27   25  313   31  70.7  64.0 1014.3 -9.9 -9.999 -99.9 -99.99 -9.99
2019/05/24 13:42 EDT    4.05   4.26   19  325   26  71.2  64.0 1014.5 -9.9 -9.999 -99.9 -99.99 -9.99
2019/05/24 13:48 EDT    4.01   4.18   17  323   23  70.2  64.0 1014.5 -9.9 -9.999 -99.9 -99.99 -9.99
2019/05/24 13:54 EDT    3.96   4.14   17  328   23  71.8  63.9 1014.5 -9.9 -9.999 -99.9 -99.99 -9.99
2019/05/24 14:00 EDT    3.91   4.03   16  321   26  70.9  63.9 1014.5 -9.9 -9.999 -99.9 -99.99 -9.99
2019/05/24 14:06 EDT    3.85   4.01   16  319   21  71.1  63.9 1014.6 -9.9 -9.999 -99.9 -99.99 -9.99
2019/05/24 14:12 EDT    3.79   3.91   15  331   23  71.2  63.9 1014.7 -9.9 -9.999 -99.9 -99.99 -9.99
2019/05/24 14:18 EDT    3.73   3.81   19  327   25  71.1  64.0 1014.8 -9.9 -9.999 -99.9 -99.99 -9.99
2019/05/24 14:24 EDT    3.66   3.75   17  332   24  71.2  64.0 1014.8 -9.9 -9.999 -99.9 -99.99 -9.99
2019/05/24 14:30 EDT    3.59   3.66   22  337   27  71.2  64.0 1014.7 -9.9 -9.999 -99.9 -99.99 -9.99
2019/05/24 14:36 EDT    3.52   3.61   18  336   27  71.8  64.0 1014.8 -9.9 -9.999 -99.9 -99.99 -9.99
2019/05/24 14:42 EDT    3.44   3.51   20  336   23  71.6  64.0 1014.9 -9.9 -9.999 -99.9 -99.99 -9.99
2019/05/24 14:48 EDT    3.36   3.42   18  338   24  72.1  64.0 1014.9 -9.9 -9.999 -99.9 -99.99 -9.99
2019/05/24 14:54 EDT    3.28   3.34   18  336   23  72.3  64.0 1015.0 -9.9 -9.999 -99.9 -99.99 -9.99
2019/05/24 15:00 EDT    3.20   3.25   15  337   22  71.2  64.0 1015.0 -9.9 -9.999 -99.9 -99.99 -9.99
2019/05/24 15:06 EDT    3.11   3.12   16  330   20  70.2  64.0 1015.0 -9.9 -9.999 -99.9 -99.99 -9.99
2019/05/24 15:12 EDT    3.03   3.04   20  316   24  70.7  64.0 1015.0 -9.9 -9.999 -99.9 -99.99 -9.99
2019/05/24 15:18 EDT    2.94   2.91   17  329   27  71.4  64.2 1015.1 -9.9 -9.999 -99.9 -99.99 -9.99
2019/05/24 15:24 EDT    2.86   2.81   18  330   23  72.1  64.2 1015.1 -9.9 -9.999 -99.9 -99.99 -9.99
2019/05/24 15:30 EDT    2.78   2.74   16  331   22  71.2  64.2 1015.2 -9.9 -9.999 -99.9 -99.99 -9.99
2019/05/24 15:36 EDT    2.69   2.68   16  331   21  71.2  64.0 1015.2 -9.9 -9.999 -99.9 -99.99 -9.99
2019/05/24 15:42 EDT    2.61   2.57   13  325   17  70.3  64.0 1015.3 -9.9 -9.999 -99.9 -99.99 -9.99
2019/05/24 15:48 EDT    2.53   2.50   16  336   21  70.7  64.0 1015.4 -9.9 -9.999 -99.9 -99.99 -9.99
2019/05/24 15:54 EDT    2.45   2.42   16  327   21  71.1  64.0 1015.5 -9.9 -9.999 -99.9 -99.99 -9.99
2019/05/24 16:00 EDT    2.38   2.37   16  329   20  71.8  64.0 1015.4 -9.9 -9.999 -99.9 -99.99 -9.99
2019/05/24 16:06 EDT    2.30   2.29   16  336   24  71.8  64.0 1015.5 -9.9 -9.999 -99.9 -99.99 -9.99
2019/05/24 16:12 EDT    2.23   2.23   16  339   20  72.0  64.0 1015.6 -9.9 -9.999 -99.9 -99.99 -9.99
2019/05/24 16:18 EDT    2.16   2.15   14  343   19  70.7  64.0 1015.7 -9.9 -9.999 -99.9 -99.99 -9.99
2019/05/24 16:24 EDT    2.09   2.08   16  346   21  71.8  64.0 1015.8 -9.9 -9.999 -99.9 -99.99 -9.99
2019/05/24 16:30 EDT    2.03   2.03   12  349   24  71.8  63.9 1016.0 -9.9 -9.999 -99.9 -99.99 -9.99
2019/05/24 16:36 EDT    1.97   1.95   14  344   20  70.9  63.9 1016.2 -9.9 -9.999 -99.9 -99.99 -9.99
2019/05/24 16:42 EDT    1.90   1.91   12  345   20  70.7  64.0 1016.3 -9.9 -9.999 -99.9 -99.99 -9.99
2019/05/24 16:48 EDT    1.85   1.83   17  339   21  71.6  64.0 1016.4 -9.9 -9.999 -99.9 -99.99 -9.99
2019/05/24 16:54 EDT    1.79   1.80   15  334   20  71.2  63.9 1016.5 -9.9 -9.999 -99.9 -99.99 -9.99
2019/05/24 17:00 EDT    1.74   1.75   13  349   19  71.4  63.9 1016.5 -9.9 -9.999 -99.9 -99.99 -9.99
2019/05/24 17:06 EDT    1.69   1.70   12  351   20  71.2  63.9 1016.6 -9.9 -9.999 -99.9 -99.99 -9.99
2019/05/24 17:12 EDT    1.64   1.66   14  350   18  70.9  63.9 1016.6 -9.9 -9.999 -99.9 -99.99 -9.99
2019/05/24 17:18 EDT    1.59   1.63   13  354   21  71.2  63.9 1016.9 -9.9 -9.999 -99.9 -99.99 -9.99
2019/05/24 17:24 EDT    1.55   1.58   12  345   18  70.5  63.9 1017.0 -9.9 -9.999 -99.9 -99.99 -9.99
2019/05/24 17:30 EDT    1.50   1.55   13  347   20  70.5  64.0 1017.2 -9.9 -9.999 -99.9 -99.99 -9.99
2019/05/24 17:36 EDT    1.47   1.51   11  347   21  70.7  64.0 1017.2 -9.9 -9.999 -99.9 -99.99 -9.99
2019/05/24 17:42 EDT    1.43   1.52   14  334   18  70.3  64.0 1017.3 -9.9 -9.999 -99.9 -99.99 -9.99
2019/05/24 17:48 EDT    1.40   1.50   16  334   20  70.9  64.0 1017.4 -9.9 -9.999 -99.9 -99.99 -9.99
2019/05/24 17:54 EDT    1.36   1.47   13  326   18  69.6  64.0 1017.4 -9.9 -9.999 -99.9 -99.99 -9.99
2019/05/24 18:00 EDT    1.34   1.47   15  327   19  70.7  64.0 1017.5 -9.9 -9.999 -99.9 -99.99 -9.99
2019/05/24 18:06 EDT    1.31   1.43   16  324   21  70.2  64.0 1017.4 -9.9 -9.999 -99.9 -99.99 -9.99
2019/05/24 18:12 EDT    1.29   1.43   11  339   19  70.3  64.0 1017.5 -9.9 -9.999 -99.9 -99.99 -9.99
2019/05/24 18:18 EDT    1.27   1.42   14  337   17  70.0  64.0 1017.6 -9.9 -9.999 -99.9 -99.99 -9.99
2019/05/24 18:24 EDT    1.25   1.44   12  343   17  69.8  64.0 1017.8 -9.9 -9.999 -99.9 -99.99 -9.99
2019/05/24 18:30 EDT    1.24   1.40   12  331   16  68.7  64.0 1017.9 -9.9 -9.999 -99.9 -99.99 -9.99
2019/05/24 18:36 EDT    1.23   1.42   15  337   18  69.3  64.0 1017.9 -9.9 -9.999 -99.9 -99.99 -9.99
2019/05/24 18:42 EDT    1.23   1.43   15  336   19  70.0  64.0 1017.9 -9.9 -9.999 -99.9 -99.99 -9.99
2019/05/24 18:48 EDT    1.23   1.46   14  338   19  69.6  64.0 1018.1 -9.9 -9.999 -99.9 -99.99 -9.99
2019/05/24 18:54 EDT    1.23   1.49   12  337   17  69.1  64.0 1018.4 -9.9 -9.999 -99.9 -99.99 -9.99
2019/05/24 19:00 EDT    1.24   1.48   13  342   16  69.1  64.0 1018.4 -9.9 -9.999 -99.9 -99.99 -9.99
2019/05/24 19:06 EDT    1.26   1.45   13  334   17  69.4  64.0 1018.4 -9.9 -9.999 -99.9 -99.99 -9.99
2019/05/24 19:12 EDT    1.27   1.54   11  338   16  68.7  64.2 1018.6 -9.9 -9.999 -99.9 -99.99 -9.99
2019/05/24 19:18 EDT    1.30   1.56    8  345   14  68.0  64.2 1018.8 -9.9 -9.999 -99.9 -99.99 -9.99
2019/05/24 19:24 EDT    1.32   1.59    9  348   14  67.8  64.0 1018.9 -9.9 -9.999 -99.9 -99.99 -9.99
2019/05/24 19:30 EDT    1.36   1.62    8  357   11  68.2  64.2 1019.0 -9.9 -9.999 -99.9 -99.99 -9.99
2019/05/24 19:36 EDT    1.39   1.69    8  353   13  68.2  64.2 1019.2 -9.9 -9.999 -99.9 -99.99 -9.99
2019/05/24 19:42 EDT    1.43   1.70    8  358   14  68.2  64.2 1019.4 -9.9 -9.999 -99.9 -99.99 -9.99
2019/05/24 19:48 EDT    1.48   1.76    9  353   16  68.5  64.2 1019.4 -9.9 -9.999 -99.9 -99.99 -9.99
2019/05/24 19:54 EDT    1.53   1.85    9  353   15  67.6  64.2 1019.5 -9.9 -9.999 -99.9 -99.99 -9.99
2019/05/24 20:00 EDT    1.58   1.86   11  353   17  67.3  64.2 1019.5 -9.9 -9.999 -99.9 -99.99 -9.99
2019/05/24 20:06 EDT    1.64   1.95    9  355   14  67.1  64.2 1019.7 -9.9 -9.999 -99.9 -99.99 -9.99
2019/05/24 20:12 EDT    1.70   2.05    7    1   13  66.6  64.2 1019.8 -9.9 -9.999 -99.9 -99.99 -9.99
2019/05/24 20:18 EDT    1.77   2.13    6  356   11  66.0  64.0 1020.0 -9.9 -9.999 -99.9 -99.99 -9.99
2019/05/24 20:24 EDT    1.84   2.17    8  358   12  65.7  64.0 1020.1 -9.9 -9.999 -99.9 -99.99 -9.99
2019/05/24 20:30 EDT    1.91   2.25    8  358   12  65.7  64.0 1020.2 -9.9 -9.999 -99.9 -99.99 -9.99
2019/05/24 20:36 EDT    1.99   2.34    8  357   13  65.3  64.0 1020.2 -9.9 -9.999 -99.9 -99.99 -9.99
2019/05/24 20:42 EDT    2.06   2.43    7    0   12  64.9  64.0 1020.3 -9.9 -9.999 -99.9 -99.99 -9.99
2019/05/24 20:48 EDT    2.14   2.53    7  357   12  64.8  64.0 1020.3 -9.9 -9.999 -99.9 -99.99 -9.99
2019/05/24 20:54 EDT    2.22   2.60    8    1   12  64.9  64.0 1020.3 -9.9 -9.999 -99.9 -99.99 -9.99
2019/05/24 21:00 EDT    2.31   2.67    9  360   13  64.9  64.0 1020.4 -9.9 -9.999 -99.9 -99.99 -9.99
2019/05/24 21:06 EDT    2.39   2.77   10  359   15  64.8  64.0 1020.4 -9.9 -9.999 -99.9 -99.99 -9.99
2019/05/24 21:12 EDT    2.47   2.81    8    5   14  64.2  64.0 1020.5 -9.9 -9.999 -99.9 -99.99 -9.99
2019/05/24 21:18 EDT    2.56   2.90   10    3   17  64.4  64.0 1020.6 -9.9 -9.999 -99.9 -99.99 -9.99
2019/05/24 21:24 EDT    2.64   2.95   11  350   15  64.6  64.0 1020.6 -9.9 -9.999 -99.9 -99.99 -9.99
2019/05/24 21:30 EDT    2.72   3.05    8  359   13  64.2  64.0 1020.7 -9.9 -9.999 -99.9 -99.99 -9.99
2019/05/24 21:36 EDT    2.81   3.14    6  359   13  63.5  64.0 1020.9 -9.9 -9.999 -99.9 -99.99 -9.99
2019/05/24 21:42 EDT    2.89   3.24   11  353   15  64.0  63.9 1021.0 -9.9 -9.999 -99.9 -99.99 -9.99
2019/05/24 21:48 EDT    2.97   3.31    9  351   17  63.5  63.9 1021.1 -9.9 -9.999 -99.9 -99.99 -9.99
2019/05/24 21:54 EDT    3.05   3.41    8  353   12  63.5  63.7 1021.2 -9.9 -9.999 -99.9 -99.99 -9.99
2019/05/24 22:00 EDT    3.13   3.52    7  359   12  63.3  63.7 1021.2 -9.9 -9.999 -99.9 -99.99 -9.99
2019/05/24 22:06 EDT    3.21   3.62    8  355   12  63.5  63.7 1021.3 -9.9 -9.999 -99.9 -99.99 -9.99
2019/05/24 22:12 EDT    3.29   3.66    9  352   14  63.3  63.7 1021.4 -9.9 -9.999 -99.9 -99.99 -9.99
2019/05/24 22:18 EDT    3.36   3.75    6  358   14  63.0  63.7 1021.5 -9.9 -9.999 -99.9 -99.99 -9.99
2019/05/24 22:24 EDT    3.43   3.84    6  353   11  62.8  63.9 1021.4 -9.9 -9.999 -99.9 -99.99 -9.99
2019/05/24 22:30 EDT    3.51   3.92    7  358   11  62.4  63.9 1021.4 -9.9 -9.999 -99.9 -99.99 -9.99
2019/05/24 22:36 EDT    3.58   3.99    7  354   14  62.4  63.7 1021.3 -9.9 -9.999 -99.9 -99.99 -9.99
2019/05/24 22:42 EDT    3.64   4.07    7  356   11  62.6  63.7 1021.2 -9.9 -9.999 -99.9 -99.99 -9.99
2019/05/24 22:48 EDT    3.71   4.13    7  359   12  62.8  63.9 1021.2 -9.9 -9.999 -99.9 -99.99 -9.99
2019/05/24 22:54 EDT    3.78   4.20    6    2   10  62.2  63.9 1021.2 -9.9 -9.999 -99.9 -99.99 -9.99
2019/05/24 23:00 EDT    3.84   4.25    7  356   10  62.2  63.9 1021.1 -9.9 -9.999 -99.9 -99.99 -9.99
2019/05/24 23:06 EDT    3.90   4.32    7  346   10  62.1  63.9 1021.2 -9.9 -9.999 -99.9 -99.99 -9.99
2019/05/24 23:12 EDT    3.96   4.39    6  349   10  62.1  63.9 1021.4 -9.9 -9.999 -99.9 -99.99 -9.99
2019/05/24 23:18 EDT    4.02   4.45    7  341   10  61.9  63.7 1021.5 -9.9 -9.999 -99.9 -99.99 -9.99
2019/05/24 23:24 EDT    4.08   4.51    8  342   12  61.9  63.7 1021.5 -9.9 -9.999 -99.9 -99.99 -9.99
2019/05/24 23:30 EDT    4.13   4.59    7  355   12  62.1  63.5 1021.4 -9.9 -9.999 -99.9 -99.99 -9.99
2019/05/24 23:36 EDT    4.19   4.66    7  354   10  61.9  63.3 1021.1 -9.9 -9.999 -99.9 -99.99 -9.99
2019/05/24 23:42 EDT    4.24   4.69    8  354   12  61.9  63.0 1021.1 -9.9 -9.999 -99.9 -99.99 -9.99
2019/05/24 23:48 EDT    4.29   4.80    6  354   11  61.9  62.8 1021.2 -9.9 -9.999 -99.9 -99.99 -9.99
2019/05/24 23:54 EDT    4.34   4.84    6  355   11  61.9  62.8 1021.4 -9.9 -9.999 -99.9 -99.99 -9.99
2019/05/25 00:00 EDT    4.38   4.85    7  350   11  61.7  62.6 1021.4 -9.9 -9.999 -99.9 -99.99 -9.99
2019/05/25 00:06 EDT    4.43   4.94    6  357   10  61.7  62.2 1021.5 -9.9 -9.999 -99.9 -99.99 -9.99
2019/05/25 00:12 EDT    4.47   5.01    5  359    9  61.7  62.2 1021.4 -9.9 -9.999 -99.9 -99.99 -9.99
2019/05/25 00:18 EDT    4.51   5.04    6    3   10  61.5  62.4 1021.3 -9.9 -9.999 -99.9 -99.99 -9.99
2019/05/25 00:24 EDT    4.54   5.08    7    7   10  61.3  62.6 1021.3 -9.9 -9.999 -99.9 -99.99 -9.99
2019/05/25 00:30 EDT    4.57   5.14    6  360    9  61.2  62.6 1021.4 -9.9 -9.999 -99.9 -99.99 -9.99
2019/05/25 00:36 EDT    4.60   5.18    3  351    8  61.0  62.6 1021.5 -9.9 -9.999 -99.9 -99.99 -9.99
2019/05/25 00:42 EDT    4.62   5.19    6  349    8  60.8  62.6 1021.5 -9.9 -9.999 -99.9 -99.99 -9.99
2019/05/25 00:48 EDT    4.64   5.25    6  342    8  60.6  62.8 1021.6 -9.9 -9.999 -99.9 -99.99 -9.99
2019/05/25 00:54 EDT    4.66   5.29    5  340    7  60.6  62.8 1021.8 -9.9 -9.999 -99.9 -99.99 -9.99
2019/05/25 01:00 EDT    4.67   5.29    5  334    7  60.4  62.8 1021.9 -9.9 -9.999 -99.9 -99.99 -9.99
2019/05/25 01:06 EDT    4.68   5.33    7  340    9  60.3  62.8 1021.9 -9.9 -9.999 -99.9 -99.99 -9.99
2019/05/25 01:12 EDT    4.68   5.37    7  343   10  60.4  62.8 1021.9 -9.9 -9.999 -99.9 -99.99 -9.99
2019/05/25 01:18 EDT    4.68   5.36    7  344   10  60.6  62.8 1022.0 -9.9 -9.999 -99.9 -99.99 -9.99
2019/05/25 01:24 EDT    4.67   5.37    6  344    9  60.4  62.8 1022.0 -9.9 -9.999 -99.9 -99.99 -9.99
2019/05/25 01:30 EDT    4.65   5.41    5  351    8  60.6  62.8 1022.1 -9.9 -9.999 -99.9 -99.99 -9.99
2019/05/25 01:36 EDT    4.63   5.40    4  350    7  60.4  62.8 1022.1 -9.9 -9.999 -99.9 -99.99 -9.99
2019/05/25 01:42 EDT    4.60   5.38    6  349    9  60.4  62.8 1022.2 -9.9 -9.999 -99.9 -99.99 -9.99
2019/05/25 01:48 EDT    4.57   5.36    5  355    8  60.4  62.6 1022.2 -9.9 -9.999 -99.9 -99.99 -9.99
2019/05/25 01:54 EDT    4.53   5.35    4  349    8  60.4  62.4 1022.2 -9.9 -9.999 -99.9 -99.99 -9.99
2019/05/25 02:00 EDT    4.48   5.31    4  353    8  60.3  62.6 1022.3 -9.9 -9.999 -99.9 -99.99 -9.99
2019/05/25 02:06 EDT    4.43   5.26    8   92   11  60.4  62.8 1022.5 -9.9 -9.999 -99.9 -99.99 -9.99
2019/05/25 02:12 EDT    4.38   5.22    5   92   13  60.8  62.8 1022.6 -9.9 -9.999 -99.9 -99.99 -9.99
2019/05/25 02:18 EDT    4.32   5.21    1   71    5  60.1  63.0 1022.5 -9.9 -9.999 -99.9 -99.99 -9.99
2019/05/25 02:24 EDT    4.25   5.15    3  122    3  59.7  63.0 1022.6 -9.9 -9.999 -99.9 -99.99 -9.99
2019/05/25 02:30 EDT    4.18   5.08    5  117    6  59.5  63.0 1022.6 -9.9 -9.999 -99.9 -99.99 -9.99
2019/05/25 02:36 EDT    4.10   5.05    6  118    8  58.8  63.0 1022.5 -9.9 -9.999 -99.9 -99.99 -9.99
2019/05/25 02:42 EDT    4.02   4.95    8  136   11  58.3  63.0 1022.7 -9.9 -9.999 -99.9 -99.99 -9.99
2019/05/25 02:48 EDT    3.94   4.86    8  144   10  58.1  63.0 1022.7 -9.9 -9.999 -99.9 -99.99 -9.99
2019/05/25 02:54 EDT    3.85   4.84   10  139   12  57.9  63.1 1022.5 -9.9 -9.999 -99.9 -99.99 -9.99
2019/05/25 03:00 EDT    3.76   4.71    8  126   13  57.7  63.1 1022.6 -9.9 -9.999 -99.9 -99.99 -9.99
2019/05/25 03:06 EDT    3.66   4.61    7  125   10  57.6  63.1 1022.5 -9.9 -9.999 -99.9 -99.99 -9.99
2019/05/25 03:12 EDT    3.57   4.54    7  135   10  57.6  63.1 1022.6 -9.9 -9.999 -99.9 -99.99 -9.99
2019/05/25 03:18 EDT    3.47   4.46    8  143   12  57.7  63.1 1022.6 -9.9 -9.999 -99.9 -99.99 -9.99
2019/05/25 03:24 EDT    3.37   4.36   10  147   11  57.7  63.1 1022.6 -9.9 -9.999 -99.9 -99.99 -9.99
2019/05/25 03:30 EDT    3.27   4.26    9  146   12  57.4  63.1 1022.7 -9.9 -9.999 -99.9 -99.99 -9.99
2019/05/25 03:36 EDT    3.17   4.16    9  139   13  57.4  63.1 1022.7 -9.9 -9.999 -99.9 -99.99 -9.99
2019/05/25 03:42 EDT    3.07   4.07   11  139   13  57.4  63.3 1022.7 -9.9 -9.999 -99.9 -99.99 -9.99
2019/05/25 03:48 EDT    2.97   3.97   10  131   14  57.2  63.3 1022.8 -9.9 -9.999 -99.9 -99.99 -9.99
2019/05/25 03:54 EDT    2.87   3.88    8  126   15  57.0  63.3 1022.7 -9.9 -9.999 -99.9 -99.99 -9.99
2019/05/25 04:00 EDT    2.77   3.75   10  125   15  57.0  63.3 1022.8 -9.9 -9.999 -99.9 -99.99 -9.99
2019/05/25 04:06 EDT    2.68   3.65    9  125   14  57.0  63.1 1022.7 -9.9 -9.999 -99.9 -99.99 -9.99
2019/05/25 04:12 EDT    2.58   3.53    8  123   12  57.0  63.1 1022.8 -9.9 -9.999 -99.9 -99.99 -9.99
2019/05/25 04:18 EDT    2.49   3.40    9  128   11  57.0  63.1 1022.8 -9.9 -9.999 -99.9 -99.99 -9.99
2019/05/25 04:24 EDT    2.39   3.29    7  128   12  56.8  63.3 1022.9 -9.9 -9.999 -99.9 -99.99 -9.99
2019/05/25 04:30 EDT    2.30   3.17    7  127   11  56.8  63.3 1022.9 -9.9 -9.999 -99.9 -99.99 -9.99
2019/05/25 04:36 EDT    2.22   3.08    6  132   10  56.8  63.3 1022.9 -9.9 -9.999 -99.9 -99.99 -9.99
2019/05/25 04:42 EDT    2.13   2.99    5  128    8  56.7  63.1 1023.0 -9.9 -9.999 -99.9 -99.99 -9.99
2019/05/25 04:48 EDT    2.05   2.85    6  134    9  56.7  63.1 1023.0 -9.9 -9.999 -99.9 -99.99 -9.99
2019/05/25 04:54 EDT    1.97   2.79    7  146    9  57.0  63.1 1023.2 -9.9 -9.999 -99.9 -99.99 -9.99
2019/05/25 05:00 EDT    1.89   2.66    5  136    8  56.8  63.1 1023.3 -9.9 -9.999 -99.9 -99.99 -9.99
2019/05/25 05:06 EDT    1.81   2.60    6  144    8  57.0  63.1 1023.5 -9.9 -9.999 -99.9 -99.99 -9.99
2019/05/25 05:12 EDT    1.74   2.53    5  138    9  56.8  63.1 1023.7 -9.9 -9.999 -99.9 -99.99 -9.99
2019/05/25 05:18 EDT    1.67   2.40    5  136    7  56.7  63.1 1023.7 -9.9 -9.999 -99.9 -99.99 -9.99
2019/05/25 05:24 EDT    1.60   2.34    7  144    8  56.8  63.1 1023.8 -9.9 -9.999 -99.9 -99.99 -9.99
2019/05/25 05:30 EDT    1.53   2.23    6  142    8  56.8  63.1 1023.9 -9.9 -9.999 -99.9 -99.99 -9.99
2019/05/25 05:36 EDT    1.47   2.16    7  149    9  57.0  63.1 1023.8 -9.9 -9.999 -99.9 -99.99 -9.99
2019/05/25 05:42 EDT    1.41   2.07    9  150   11  57.0  63.1 1023.7 -9.9 -9.999 -99.9 -99.99 -9.99
2019/05/25 05:48 EDT    1.35   1.98    7  151   10  57.0  63.1 1024.0 -9.9 -9.999 -99.9 -99.99 -9.99
2019/05/25 05:54 EDT    1.29   1.90    8  153   10  57.2  63.1 1024.1 -9.9 -9.999 -99.9 -99.99 -9.99
2019/05/25 06:00 EDT    1.24   1.81    8  153    9  57.2  63.1 1024.1 -9.9 -9.999 -99.9 -99.99 -9.99
2019/05/25 06:06 EDT    1.19   1.77   12  176   14  57.7  63.1 1024.1 -9.9 -9.999 -99.9 -99.99 -9.99
2019/05/25 06:12 EDT    1.14   1.70   11  161   14  57.7  63.1 1024.4 -9.9 -9.999 -99.9 -99.99 -9.99
2019/05/25 06:18 EDT    1.09   1.64   11  169   13  57.7  63.1 1024.4 -9.9 -9.999 -99.9 -99.99 -9.99
2019/05/25 06:24 EDT    1.05   1.57   12  170   13  57.7  63.1 1024.6 -9.9 -9.999 -99.9 -99.99 -9.99
2019/05/25 06:30 EDT    1.00   1.54    8  155   11  57.7  63.1 1024.5 -9.9 -9.999 -99.9 -99.99 -9.99
2019/05/25 06:36 EDT    0.97   1.48    9  152   11  57.6  63.1 1024.7 -9.9 -9.999 -99.9 -99.99 -9.99
2019/05/25 06:42 EDT    0.93   1.45    6  149   10  57.7  63.1 1024.7 -9.9 -9.999 -99.9 -99.99 -9.99
2019/05/25 06:48 EDT    0.90   1.41    8  166   10  58.1  63.1 1024.8 -9.9 -9.999 -99.9 -99.99 -9.99
2019/05/25 06:54 EDT    0.87   1.36    8  176   10  58.3  63.1 1024.7 -9.9 -9.999 -99.9 -99.99 -9.99
2019/05/25 07:00 EDT    0.85   1.34    8  175   11  58.1  63.1 1024.8 -9.9 -9.999 -99.9 -99.99 -9.99
2019/05/25 07:06 EDT    0.82   1.29    9  175   11  58.1  63.1 1024.6 -9.9 -9.999 -99.9 -99.99 -9.99
2019/05/25 07:12 EDT    0.81   1.29    7  172   11  58.5  63.1 1024.8 -9.9 -9.999 -99.9 -99.99 -9.99
2019/05/25 07:18 EDT    0.79   1.27    6  162   11  58.5  63.1 1025.0 -9.9 -9.999 -99.9 -99.99 -9.99
2019/05/25 07:24 EDT    0.79   1.28    6  170    9  58.3  63.1 1024.9 -9.9 -9.999 -99.9 -99.99 -9.99
2019/05/25 07:30 EDT    0.78   1.26    9  156   10  58.5  63.1 1024.9 -9.9 -9.999 -99.9 -99.99 -9.99
2019/05/25 07:36 EDT    0.78   1.26    7  164   10  58.3  63.1 1024.9 -9.9 -9.999 -99.9 -99.99 -9.99
2019/05/25 07:42 EDT    0.79   1.29    7  172   10  58.3  63.1 1025.1 -9.9 -9.999 -99.9 -99.99 -9.99
2019/05/25 07:48 EDT    0.80   1.33    8  177    9  58.3  63.1 1025.3 -9.9 -9.999 -99.9 -99.99 -9.99
2019/05/25 07:54 EDT    0.81   1.35    7  178   10  58.3  63.1 1025.4 -9.9 -9.999 -99.9 -99.99 -9.99
2019/05/25 08:00 EDT    0.83   1.38    7  174    8  58.6  63.1 1025.5 -9.9 -9.999 -99.9 -99.99 -9.99
2019/05/25 08:06 EDT    0.86   1.42    6  161    8  58.6  63.1 1025.5 -9.9 -9.999 -99.9 -99.99 -9.99
2019/05/25 08:12 EDT    0.89   1.47    5  160    8  59.0  63.1 1025.4 -9.9 -9.999 -99.9 -99.99 -9.99
2019/05/25 08:18 EDT    0.92   1.55    4  184    7  59.2  63.1 1025.6 -9.9 -9.999 -99.9 -99.99 -9.99
2019/05/25 08:24 EDT    0.96   1.64    5  163    7  59.4  63.1 1025.6 -9.9 -9.999 -99.9 -99.99 -9.99
2019/05/25 08:30 EDT    1.00   1.69    5  172    6  59.5  63.1 1025.6 -9.9 -9.999 -99.9 -99.99 -9.99
2019/05/25 08:36 EDT    1.05   1.74    5  176    8  59.5  63.1 1025.6 -9.9 -9.999 -99.9 -99.99 -9.99
2019/05/25 08:42 EDT    1.10   1.85    6  181    7  59.5  63.1 1025.6 -9.9 -9.999 -99.9 -99.99 -9.99
2019/05/25 08:48 EDT    1.16   1.92    6  186    9  59.7  63.1 1025.6 -9.9 -9.999 -99.9 -99.99 -9.99
2019/05/25 08:54 EDT    1.22   1.98    9  172   12  59.7  63.1 1025.6 -9.9 -9.999 -99.9 -99.99 -9.99
2019/05/25 09:00 EDT    1.28   2.06    9  170   10  59.4  63.1 1025.6 -9.9 -9.999 -99.9 -99.99 -9.99
2019/05/25 09:06 EDT    1.35   2.13   10  166   11  59.4  63.1 1025.6 -9.9 -9.999 -99.9 -99.99 -9.99
2019/05/25 09:12 EDT    1.41   2.22    9  168   11  59.5  63.1 1025.6 -9.9 -9.999 -99.9 -99.99 -9.99
2019/05/25 09:18 EDT    1.48   2.28   10  166   12  59.7  63.1 1025.6 -9.9 -9.999 -99.9 -99.99 -9.99
2019/05/25 09:24 EDT    1.56   2.36   10  165   12  59.5  63.3 1025.5 -9.9 -9.999 -99.9 -99.99 -9.99
2019/05/25 09:30 EDT    1.63   2.46    9  173   12  59.7  63.3 1025.5 -9.9 -9.999 -99.9 -99.99 -9.99
2019/05/25 09:36 EDT    1.70   2.54    8  178   12  59.7  63.3 1025.7 -9.9 -9.999 -99.9 -99.99 -9.99
2019/05/25 09:42 EDT    1.78   2.63    9  173   12  59.9  63.5 1025.7 -9.9 -9.999 -99.9 -99.99 -9.99
2019/05/25 09:48 EDT    1.86   2.74    8  179   12  60.1  63.7 1025.7 -9.9 -9.999 -99.9 -99.99 -9.99
2019/05/25 09:54 EDT    1.94   2.83    9  181   11  60.1  63.7 1025.7 -9.9 -9.999 -99.9 -99.99 -9.99
2019/05/25 10:00 EDT    2.01   2.93    9  173   11  60.3  63.7 1025.7 -9.9 -9.999 -99.9 -99.99 -9.99
2019/05/25 10:06 EDT    2.09   3.03   10  173   11  60.4  63.7 1025.8 -9.9 -9.999 -99.9 -99.99 -9.99
2019/05/25 10:12 EDT    2.17   3.15    8  170   10  60.8  63.7 1025.8 -9.9 -9.999 -99.9 -99.99 -9.99
2019/05/25 10:18 EDT    2.25   3.23    8  166    9  61.0  63.7 1025.7 -9.9 -9.999 -99.9 -99.99 -9.99
2019/05/25 10:24 EDT    2.32   3.31    9  168   10  61.2  63.9 1025.6 -9.9 -9.999 -99.9 -99.99 -9.99
2019/05/25 10:30 EDT    2.40   3.40    9  161   11  61.2  63.9 1025.5 -9.9 -9.999 -99.9 -99.99 -9.99
2019/05/25 10:36 EDT    2.47   3.47   11  165   13  61.2  63.9 1025.4 -9.9 -9.999 -99.9 -99.99 -9.99
2019/05/25 10:42 EDT    2.55   3.53    9  170   11  61.5  63.9 1025.5 -9.9 -9.999 -99.9 -99.99 -9.99
2019/05/25 10:48 EDT    2.62   3.58   11  160   13  61.2  64.0 1025.6 -9.9 -9.999 -99.9 -99.99 -9.99
2019/05/25 10:54 EDT    2.70   3.65   10  165   13  61.5  64.0 1025.7 -9.9 -9.999 -99.9 -99.99 -9.99
2019/05/25 11:00 EDT    2.77   3.71    9  158   12  62.1  64.0 1025.6 -9.9 -9.999 -99.9 -99.99 -9.99
2019/05/25 11:06 EDT    2.84   3.78   10  154   12  62.1  64.0 1025.6 -9.9 -9.999 -99.9 -99.99 -9.99
2019/05/25 11:12 EDT    2.91   3.83   12  161   14  61.9  64.0 1025.6 -9.9 -9.999 -99.9 -99.99 -9.99
2019/05/25 11:18 EDT    2.98   3.93   11  155   14  62.1  64.2 1025.6 -9.9 -9.999 -99.9 -99.99 -9.99
2019/05/25 11:24 EDT    3.04   4.01   11  147   14  62.2  64.2 1025.6 -9.9 -9.999 -99.9 -99.99 -9.99
2019/05/25 11:30 EDT    3.11   4.06   12  153   15  62.2  64.2 1025.6 -9.9 -9.999 -99.9 -99.99 -9.99
2019/05/25 11:36 EDT    3.18   4.17   10  154   13  62.6  64.4 1025.6 -9.9 -9.999 -99.9 -99.99 -9.99
2019/05/25 11:42 EDT    3.24   4.24   14  138   17  62.2  64.4 1025.5 -9.9 -9.999 -99.9 -99.99 -9.99
2019/05/25 11:48 EDT    3.31   4.29   12  148   15  62.4  64.4 1025.6 -9.9 -9.999 -99.9 -99.99 -9.99
2019/05/25 11:54 EDT    3.37   4.36   13  151   15  62.2  64.4 1025.5 -9.9 -9.999 -99.9 -99.99 -9.99
2019/05/25 12:00 EDT    3.43   4.39   12  142   16  62.4  64.4 1025.5 -9.9 -9.999 -99.9 -99.99 -9.99
2019/05/25 12:06 EDT    3.49   4.45   14  158   16  62.2  64.6 1025.5 -9.9 -9.999 -99.9 -99.99 -9.99
2019/05/25 12:12 EDT    3.55   4.47   13  140   16  63.1  64.6 1025.4 -9.9 -9.999 -99.9 -99.99 -9.99
2019/05/25 12:18 EDT    3.61   4.54   12  159   15  62.4  64.6 1025.5 -9.9 -9.999 -99.9 -99.99 -9.99
2019/05/25 12:24 EDT    3.66   4.57   13  150   17  62.1  64.6 1025.3 -9.9 -9.999 -99.9 -99.99 -9.99
2019/05/25 12:30 EDT    3.71   4.61   15  150   18  61.9  64.6 1025.1 -9.9 -9.999 -99.9 -99.99 -9.99
2019/05/25 12:36 EDT    3.77   4.66   13  150   17  62.6  64.6 1025.2 -9.9 -9.999 -99.9 -99.99 -9.99
2019/05/25 12:42 EDT    3.81   4.69   13  152   17  62.6  64.8 1025.2 -9.9 -9.999 -99.9 -99.99 -9.99
2019/05/25 12:48 EDT    3.86   4.72   14  149   17  62.2  64.8 1025.1 -9.9 -9.999 -99.9 -99.99 -9.99
2019/05/25 12:54 EDT    3.90   4.75   17  162   18  62.4  64.8 1025.0 -9.9 -9.999 -99.9 -99.99 -9.99
2019/05/25 13:00 EDT    3.94   4.78   16  146   19  62.2  64.8 1024.8 -9.9 -9.999 -99.9 -99.99 -9.99
2019/05/25 13:06 EDT    3.98   4.83   15  151   18  62.2  64.9 1024.8 -9.9 -9.999 -99.9 -99.99 -9.99
2019/05/25 13:12 EDT    4.01   4.80   13  148   17  61.7  64.9 1024.7 -9.9 -9.999 -99.9 -99.99 -9.99
2019/05/25 13:18 EDT    4.04   4.84   13  146   17  61.5  64.9 1024.7 -9.9 -9.999 -99.9 -99.99 -9.99
2019/05/25 13:24 EDT    4.07   4.86   14  155   18  61.5  65.1 1024.6 -9.9 -9.999 -99.9 -99.99 -9.99
2019/05/25 13:30 EDT    4.09   4.82   15  159   20  61.7  65.1 1024.6 -9.9 -9.999 -99.9 -99.99 -9.99
2019/05/25 13:36 EDT    4.10   4.85   16  162   20  61.5  64.9 1024.5 -9.9 -9.999 -99.9 -99.99 -9.99
2019/05/25 13:42 EDT    4.11   4.88   17  161   19  61.5  64.9 1024.5 -9.9 -9.999 -99.9 -99.99 -9.99
2019/05/25 13:48 EDT    4.12   4.86   17  160   20  61.5  65.1 1024.3 -9.9 -9.999 -99.9 -99.99 -9.99
2019/05/25 13:54 EDT    4.12   4.83   18  162   22  61.5  64.9 1024.2 -9.9 -9.999 -99.9 -99.99 -9.99
2019/05/25 14:00 EDT    4.11   4.83   18  160   22  61.5  65.1 1024.0 -9.9 -9.999 -99.9 -99.99 -9.99
2019/05/25 14:06 EDT    4.10   4.83   20  160   22  61.7  65.1 1023.7 -9.9 -9.999 -99.9 -99.99 -9.99
2019/05/25 14:12 EDT    4.09   4.79   20  161   23  61.5  65.1 1023.7 -9.9 -9.999 -99.9 -99.99 -9.99
2019/05/25 14:18 EDT    4.06   4.74   19  158   23  61.2  65.1 1023.8 -9.9 -9.999 -99.9 -99.99 -9.99
2019/05/25 14:24 EDT    4.04   4.74   18  164   24  61.2  65.1 1023.6 -9.9 -9.999 -99.9 -99.99 -9.99
2019/05/25 14:30 EDT    4.00   4.67   18  155   23  61.3  65.1 1023.6 -9.9 -9.999 -99.9 -99.99 -9.99
2019/05/25 14:36 EDT    3.97   4.63   19  161   23  61.3  65.3 1023.5 -9.9 -9.999 -99.9 -99.99 -9.99
2019/05/25 14:42 EDT    3.92   4.60   19  162   23  61.2  65.3 1023.5 -9.9 -9.999 -99.9 -99.99 -9.99
2019/05/25 14:48 EDT    3.87   4.55   20  164   24  61.2  65.3 1023.4 -9.9 -9.999 -99.9 -99.99 -9.99
2019/05/25 14:54 EDT    3.82   4.50   19  161   22  61.3  65.5 1023.3 -9.9 -9.999 -99.9 -99.99 -9.99
2019/05/25 15:00 EDT    3.77   4.46   16  157   21  61.7  65.7 1023.3 -9.9 -9.999 -99.9 -99.99 -9.99
2019/05/25 15:06 EDT    3.70   4.41   18  165   21  61.9  65.5 1023.3 -9.9 -9.999 -99.9 -99.99 -9.99
2019/05/25 15:12 EDT    3.64   4.36   16  163   22  61.9  65.5 1023.2 -9.9 -9.999 -99.9 -99.99 -9.99
2019/05/25 15:18 EDT    3.57   4.27   17  163   22  62.2  65.5 1023.1 -9.9 -9.999 -99.9 -99.99 -9.99
2019/05/25 15:24 EDT    3.50   4.24   16  162   22  62.4  65.7 1023.0 -9.9 -9.999 -99.9 -99.99 -9.99
2019/05/25 15:30 EDT    3.43   4.16   17  157   21  62.1  65.7 1022.9 -9.9 -9.999 -99.9 -99.99 -9.99
2019/05/25 15:36 EDT    3.36   4.10   17  157   20  61.7  65.7 1022.8 -9.9 -9.999 -99.9 -99.99 -9.99
2019/05/25 15:42 EDT    3.28   4.02   17  156   21  61.9  65.7 1022.7 -9.9 -9.999 -99.9 -99.99 -9.99
2019/05/25 15:48 EDT    3.20   3.98   16  163   21  62.2  65.7 1022.7 -9.9 -9.999 -99.9 -99.99 -9.99
2019/05/25 15:54 EDT    3.13   3.88   16  167   24  62.2  65.8 1022.6 -9.9 -9.999 -99.9 -99.99 -9.99
2019/05/25 16:00 EDT    3.05   3.83   21  161   24  62.1  65.8 1022.6 -9.9 -9.999 -99.9 -99.99 -9.99
2019/05/25 16:06 EDT    2.97   3.78   21  163   24  62.1  66.0 1022.5 -9.9 -9.999 -99.9 -99.99 -9.99
2019/05/25 16:12 EDT    2.90   3.70   19  164   22  62.1  66.0 1022.4 -9.9 -9.999 -99.9 -99.99 -9.99
2019/05/25 16:18 EDT    2.82   3.62   19  164   23  62.2  66.0 1022.2 -9.9 -9.999 -99.9 -99.99 -9.99
2019/05/25 16:24 EDT    2.75   3.55   17  163   22  62.4  65.8 1022.2 -9.9 -9.999 -99.9 -99.99 -9.99
2019/05/25 16:30 EDT    2.67   3.47   14  163   20  62.6  65.8 1022.3 -9.9 -9.999 -99.9 -99.99 -9.99
2019/05/25 16:36 EDT    2.60   3.40   17  166   22  62.6  65.8 1022.2 -9.9 -9.999 -99.9 -99.99 -9.99
2019/05/25 16:42 EDT    2.53   3.31   19  165   22  62.6  65.8 1022.2 -9.9 -9.999 -99.9 -99.99 -9.99
2019/05/25 16:48 EDT    2.46   3.27   19  164   23  62.8  65.7 1022.0 -9.9 -9.999 -99.9 -99.99 -9.99
2019/05/25 16:54 EDT    2.40   3.18   20  168   24  62.4  65.8 1021.9 -9.9 -9.999 -99.9 -99.99 -9.99
2019/05/25 17:00 EDT    2.33   3.15   18  164   23  62.4  65.8 1021.9 -9.9 -9.999 -99.9 -99.99 -9.99
2019/05/25 17:06 EDT    2.27   3.08   18  169   22  62.8  65.8 1021.9 -9.9 -9.999 -99.9 -99.99 -9.99
2019/05/25 17:12 EDT    2.21   3.03   19  168   22  62.6  65.8 1021.8 -9.9 -9.999 -99.9 -99.99 -9.99
2019/05/25 17:18 EDT    2.16   3.01   18  169   22  62.4  66.0 1021.8 -9.9 -9.999 -99.9 -99.99 -9.99
2019/05/25 17:24 EDT    2.10   2.96   18  167   21  62.6  66.0 1021.6 -9.9 -9.999 -99.9 -99.99 -9.99
2019/05/25 17:30 EDT    2.05   2.92   18  174   20  62.6  66.0 1021.6 -9.9 -9.999 -99.9 -99.99 -9.99
2019/05/25 17:36 EDT    2.00   2.88   20  167   22  62.2  66.0 1021.4 -9.9 -9.999 -99.9 -99.99 -9.99
2019/05/25 17:42 EDT    1.95   2.82   19  165   23  62.1  66.0 1021.0 -9.9 -9.999 -99.9 -99.99 -9.99
2019/05/25 17:48 EDT    1.91   2.78   17  164   22  62.1  66.0 1021.1 -9.9 -9.999 -99.9 -99.99 -9.99
2019/05/25 17:54 EDT    1.86   2.71   17  165   20  61.9  66.0 1021.3 -9.9 -9.999 -99.9 -99.99 -9.99
2019/05/25 18:00 EDT    1.82   2.67   14  160   18  61.7  66.0 1021.5 -9.9 -9.999 -99.9 -99.99 -9.99
2019/05/25 18:06 EDT    1.78   2.62   16  160   18  61.5  66.0 1021.5 -9.9 -9.999 -99.9 -99.99 -9.99
2019/05/25 18:12 EDT    1.74   2.60   16  175   19  62.1  66.0 1021.9 -9.9 -9.999 -99.9 -99.99 -9.99
2019/05/25 18:18 EDT    1.70   2.56   16  174   18  62.2  66.0 1021.8 -9.9 -9.999 -99.9 -99.99 -9.99
2019/05/25 18:24 EDT    1.67   2.53   15  176   17  62.4  66.0 1021.8 -9.9 -9.999 -99.9 -99.99 -9.99
2019/05/25 18:30 EDT    1.64   2.49   17  167   19  62.4  66.0 1021.5 -9.9 -9.999 -99.9 -99.99 -9.99
2019/05/25 18:36 EDT    1.61   2.43   15  167   19  62.4  66.0 1021.4 -9.9 -9.999 -99.9 -99.99 -9.99
2019/05/25 18:42 EDT    1.58   2.41   16  167   18  62.4  66.0 1021.2 -9.9 -9.999 -99.9 -99.99 -9.99
2019/05/25 18:48 EDT    1.55   2.38   17  169   20  62.4  66.0 1021.0 -9.9 -9.999 -99.9 -99.99 -9.99
2019/05/25 18:54 EDT    1.52   2.32   16  168   19  62.1  66.0 1021.1 -9.9 -9.999 -99.9 -99.99 -9.99
2019/05/25 19:00 EDT    1.50   2.28   15  160   18  61.3  66.0 1021.1 -9.9 -9.999 -99.9 -99.99 -9.99
2019/05/25 19:06 EDT    1.48   2.25   14  160   17  61.2  66.0 1021.0 -9.9 -9.999 -99.9 -99.99 -9.99
2019/05/25 19:12 EDT    1.46   2.22   14  156   17  60.6  66.0 1020.8 -9.9 -9.999 -99.9 -99.99 -9.99
2019/05/25 19:18 EDT    1.45   2.19   14  159   18  60.6  66.0 1021.0 -9.9 -9.999 -99.9 -99.99 -9.99
2019/05/25 19:24 EDT    1.43   2.18   15  161   18  60.6  66.0 1021.2 -9.9 -9.999 -99.9 -99.99 -9.99
2019/05/25 19:30 EDT    1.42   2.14   17  163   21  60.6  66.0 1021.0 -9.9 -9.999 -99.9 -99.99 -9.99
2019/05/25 19:36 EDT    1.42   2.10   16  162   20  60.6  66.0 1020.9 -9.9 -9.999 -99.9 -99.99 -9.99
2019/05/25 19:42 EDT    1.42   2.11   16  164   20  60.6  66.0 1020.9 -9.9 -9.999 -99.9 -99.99 -9.99
2019/05/25 19:48 EDT    1.42   2.07   15  160   20  60.4  66.0 1020.8 -9.9 -9.999 -99.9 -99.99 -9.99
2019/05/25 19:54 EDT    1.42   2.05   17  161   19  60.4  66.0 1020.8 -9.9 -9.999 -99.9 -99.99 -9.99
2019/05/25 20:00 EDT    1.43   2.05   15  164   21  60.4  66.0 1020.9 -9.9 -9.999 -99.9 -99.99 -9.99
2019/05/25 20:06 EDT    1.44   2.06   17  165   19  60.6  66.0 1021.0 -9.9 -9.999 -99.9 -99.99 -9.99
2019/05/25 20:12 EDT    1.46   2.06   17  171   20  61.0  66.0 1020.9 -9.9 -9.999 -99.9 -99.99 -9.99
2019/05/25 20:18 EDT    1.48   2.08   16  170   19  61.0  66.0 1021.2 -9.9 -9.999 -99.9 -99.99 -9.99
2019/05/25 20:24 EDT    1.50   2.07   17  173   20  61.0  66.0 1021.1 -9.9 -9.999 -99.9 -99.99 -9.99
2019/05/25 20:30 EDT    1.53   2.11   18  172   21  60.8  66.0 1021.0 -9.9 -9.999 -99.9 -99.99 -9.99
2019/05/25 20:36 EDT    1.57   2.12   16  170   20  60.8  66.0 1021.1 -9.9 -9.999 -99.9 -99.99 -9.99
2019/05/25 20:42 EDT    1.60   2.15   17  170   19  60.8  66.0 1020.8 -9.9 -9.999 -99.9 -99.99 -9.99
2019/05/25 20:48 EDT    1.64   2.16   16  165   19  60.6  66.0 1020.5 -9.9 -9.999 -99.9 -99.99 -9.99
2019/05/25 20:54 EDT    1.69   2.20   17  171   19  60.8  66.0 1020.5 -9.9 -9.999 -99.9 -99.99 -9.99
2019/05/25 21:00 EDT    1.74   2.21   17  166   21  60.6  66.0 1020.4 -9.9 -9.999 -99.9 -99.99 -9.99
2019/05/25 21:06 EDT    1.79   2.24   16  164   20  60.6  66.0 1020.4 -9.9 -9.999 -99.9 -99.99 -9.99
2019/05/25 21:12 EDT    1.85   2.29   18  168   20  60.6  65.8 1020.2 -9.9 -9.999 -99.9 -99.99 -9.99
2019/05/25 21:18 EDT    1.91   2.34   17  164   20  60.4  65.8 1019.9 -9.9 -9.999 -99.9 -99.99 -9.99
2019/05/25 21:24 EDT    1.97   2.36   15  163   20  60.3  65.8 1019.8 -9.9 -9.999 -99.9 -99.99 -9.99
2019/05/25 21:30 EDT    2.04   2.41   16  162   21  60.1  65.8 1019.8 -9.9 -9.999 -99.9 -99.99 -9.99
2019/05/25 21:36 EDT    2.10   2.49   16  164   19  60.3  65.8 1019.7 -9.9 -9.999 -99.9 -99.99 -9.99
2019/05/25 21:42 EDT    2.17   2.53   18  164   20  60.3  65.8 1019.7 -9.9 -9.999 -99.9 -99.99 -9.99
2019/05/25 21:48 EDT    2.24   2.59   17  160   20  60.3  65.8 1019.6 -9.9 -9.999 -99.9 -99.99 -9.99
2019/05/25 21:54 EDT    2.32   2.66   15  165   21  60.3  65.8 1019.7 -9.9 -9.999 -99.9 -99.99 -9.99
2019/05/25 22:00 EDT    2.39   2.74   18  176   20  60.3  65.7 1019.9 -9.9 -9.999 -99.9 -99.99 -9.99
2019/05/25 22:06 EDT    2.47   2.81   16  178   20  60.6  65.8 1019.8 -9.9 -9.999 -99.9 -99.99 -9.99
2019/05/25 22:12 EDT    2.54   2.91   18  173   21  60.3  65.8 1019.6 -9.9 -9.999 -99.9 -99.99 -9.99
2019/05/25 22:18 EDT    2.62   2.98   18  177   21  60.4  65.8 1019.7 -9.9 -9.999 -99.9 -99.99 -9.99
2019/05/25 22:24 EDT    2.69   3.11   18  187   21  60.6  65.8 1019.9 -9.9 -9.999 -99.9 -99.99 -9.99
2019/05/25 22:30 EDT    2.77   3.19   18  192   22  60.8  65.8 1020.2 -9.9 -9.999 -99.9 -99.99 -9.99
2019/05/25 22:36 EDT    2.84   3.23   17  189   21  60.8  65.7 1020.2 -9.9 -9.999 -99.9 -99.99 -9.99
2019/05/25 22:42 EDT    2.92   3.37   14  196   20  60.8  65.7 1020.2 -9.9 -9.999 -99.9 -99.99 -9.99
2019/05/25 22:48 EDT    2.99   3.45   13  186   16  60.8  65.7 1020.1 -9.9 -9.999 -99.9 -99.99 -9.99
2019/05/25 22:54 EDT    3.06   3.52   12  186   14  60.8  65.7 1020.1 -9.9 -9.999 -99.9 -99.99 -9.99
2019/05/25 23:00 EDT    3.14   3.56   10  186   15  60.8  65.7 1020.0 -9.9 -9.999 -99.9 -99.99 -9.99
2019/05/25 23:06 EDT    3.21   3.67   10  181   13  60.8  65.7 1019.8 -9.9 -9.999 -99.9 -99.99 -9.99
2019/05/25 23:12 EDT    3.28   3.74   10  188   12  60.8  65.7 1019.9 -9.9 -9.999 -99.9 -99.99 -9.99
2019/05/25 23:18 EDT    3.35   3.78    8  196   10  60.8  65.7 1020.0 -9.9 -9.999 -99.9 -99.99 -9.99
2019/05/25 23:24 EDT    3.41   3.87    9  198    9  60.8  65.7 1019.9 -9.9 -9.999 -99.9 -99.99 -9.99
2019/05/25 23:30 EDT    3.48   3.93    8  196    9  61.0  65.7 1019.7 -9.9 -9.999 -99.9 -99.99 -9.99
2019/05/25 23:36 EDT    3.54   4.02    7  205   10  61.2  65.7 1019.7 -9.9 -9.999 -99.9 -99.99 -9.99
2019/05/25 23:42 EDT    3.61   4.06    4  201    8  61.2  65.7 1019.7 -9.9 -9.999 -99.9 -99.99 -9.99
2019/05/25 23:48 EDT    3.67   4.18    4  217    6  61.3  65.7 1019.6 -9.9 -9.999 -99.9 -99.99 -9.99
2019/05/25 23:54 EDT    3.73   4.27    7  215    9  61.7  65.7 1019.6 -9.9 -9.999 -99.9 -99.99 -9.99
2019/05/26 00:00 EDT    3.79   4.33    6  221    7  61.7  65.7 1019.6 -9.9 -9.999 -99.9 -99.99 -9.99
2019/05/26 00:06 EDT    3.84   4.39    7  223    8  61.7  65.7 1019.5 -9.9 -9.999 -99.9 -99.99 -9.99
2019/05/26 00:12 EDT    3.90   4.47    7  220    7  61.7  65.7 1019.4 -9.9 -9.999 -99.9 -99.99 -9.99
2019/05/26 00:18 EDT    3.96   4.53    7  220    9  61.7  65.7 1019.2 -9.9 -9.999 -99.9 -99.99 -9.99
2019/05/26 00:24 EDT    4.01   4.56    6  207    8  61.5  65.7 1018.9 -9.9 -9.999 -99.9 -99.99 -9.99
2019/05/26 00:30 EDT    4.06   4.62    6  200    8  61.5  65.7 1018.7 -9.9 -9.999 -99.9 -99.99 -9.99
2019/05/26 00:36 EDT    4.11   4.67    6  206    8  61.5  65.5 1018.5 -9.9 -9.999 -99.9 -99.99 -9.99
2019/05/26 00:42 EDT    4.16   4.71    6  207    8  61.5  65.5 1018.5 -9.9 -9.999 -99.9 -99.99 -9.99
2019/05/26 00:48 EDT    4.20   4.76    7  213    9  61.7  65.3 1018.5 -9.9 -9.999 -99.9 -99.99 -9.99
2019/05/26 00:54 EDT    4.25   4.84    8  212    9  61.7  64.9 1018.5 -9.9 -9.999 -99.9 -99.99 -9.99
2019/05/26 01:00 EDT    4.29   4.86    7  210    8  61.5  64.8 1018.3 -9.9 -9.999 -99.9 -99.99 -9.99
2019/05/26 01:06 EDT    4.32   4.91    7  218    7  61.5  64.8 1018.3 -9.9 -9.999 -99.9 -99.99 -9.99
2019/05/26 01:12 EDT    4.36   4.95    6  217    8  61.5  64.6 1018.2 -9.9 -9.999 -99.9 -99.99 -9.99
2019/05/26 01:18 EDT    4.39   5.00    8  225    9  61.7  64.6 1018.2 -9.9 -9.999 -99.9 -99.99 -9.99
2019/05/26 01:24 EDT    4.42   5.05    8  224    9  61.5  64.4 1018.3 -9.9 -9.999 -99.9 -99.99 -9.99
2019/05/26 01:30 EDT    4.44   5.04    6  234    8  61.3  64.4 1018.2 -9.9 -9.999 -99.9 -99.99 -9.99
2019/05/26 01:36 EDT    4.46   5.07    7  281    8  61.5  64.2 1018.5 -9.9 -9.999 -99.9 -99.99 -9.99
2019/05/26 01:42 EDT    4.48   5.08    4  287    8  61.5  64.2 1018.1 -9.9 -9.999 -99.9 -99.99 -9.99
2019/05/26 01:48 EDT    4.49   5.08    4  239    5  61.5  64.0 1017.7 -9.9 -9.999 -99.9 -99.99 -9.99
2019/05/26 01:54 EDT    4.50   5.08    5  214    7  61.3  63.9 1017.6 -9.9 -9.999 -99.9 -99.99 -9.99
2019/05/26 02:00 EDT    4.50   5.06    6  222    8  61.5  63.7 1017.5 -9.9 -9.999 -99.9 -99.99 -9.99
2019/05/26 02:06 EDT    4.50   5.03    7  227    8  61.5  63.7 1017.3 -9.9 -9.999 -99.9 -99.99 -9.99
2019/05/26 02:12 EDT    4.49   5.00    7  215    8  61.5  63.7 1017.1 -9.9 -9.999 -99.9 -99.99 -9.99
2019/05/26 02:18 EDT    4.47   5.02    6  209    8  61.5  63.7 1016.9 -9.9 -9.999 -99.9 -99.99 -9.99
2019/05/26 02:24 EDT    4.45   4.99    6  194    8  61.5  63.5 1016.6 -9.9 -9.999 -99.9 -99.99 -9.99
2019/05/26 02:30 EDT    4.43   4.97    7  196    8  61.3  63.3 1016.4 -9.9 -9.999 -99.9 -99.99 -9.99
2019/05/26 02:36 EDT    4.39   4.95    5  195    7  61.5  63.3 1016.3 -9.9 -9.999 -99.9 -99.99 -9.99
2019/05/26 02:42 EDT    4.36   4.96    4  199    7  61.5  63.3 1016.3 -9.9 -9.999 -99.9 -99.99 -9.99
2019/05/26 02:48 EDT    4.32   4.93    4  220    5  61.5  63.1 1016.3 -9.9 -9.999 -99.9 -99.99 -9.99
2019/05/26 02:54 EDT    4.27   4.86    3  226    4  61.7  63.1 1016.3 -9.9 -9.999 -99.9 -99.99 -9.99
2019/05/26 03:00 EDT    4.21   4.82    4  242    4  61.5  63.1 1016.3 -9.9 -9.999 -99.9 -99.99 -9.99
2019/05/26 03:06 EDT    4.16   4.75    4  239    5  61.7  63.1 1016.2 -9.9 -9.999 -99.9 -99.99 -9.99
2019/05/26 03:12 EDT    4.09   4.63    4  232    5  61.7  63.3 1016.1 -9.9 -9.999 -99.9 -99.99 -9.99
2019/05/26 03:18 EDT    4.03   4.58    5  232    6  61.7  63.3 1016.1 -9.9 -9.999 -99.9 -99.99 -9.99
2019/05/26 03:24 EDT    3.95   4.43    5  255    6  61.7  63.3 1016.2 -9.9 -9.999 -99.9 -99.99 -9.99
2019/05/26 03:30 EDT    3.88   4.35    5  241    5  61.7  63.5 1016.0 -9.9 -9.999 -99.9 -99.99 -9.99
2019/05/26 03:36 EDT    3.80   4.25    5  241    6  61.5  63.5 1015.9 -9.9 -9.999 -99.9 -99.99 -9.99
2019/05/26 03:42 EDT    3.72   4.17    6  252    6  61.7  63.5 1015.9 -9.9 -9.999 -99.9 -99.99 -9.99
2019/05/26 03:48 EDT    3.63   4.09    7  242    8  61.7  63.5 1015.9 -9.9 -9.999 -99.9 -99.99 -9.99
2019/05/26 03:54 EDT    3.54   4.03    7  236    8  61.7  63.5 1015.8 -9.9 -9.999 -99.9 -99.99 -9.99
2019/05/26 04:00 EDT    3.45   3.92    7  234    9  61.7  63.5 1015.9 -9.9 -9.999 -99.9 -99.99 -9.99
2019/05/26 04:06 EDT    3.36   3.86    6  242    9  61.7  63.3 1015.9 -9.9 -9.999 -99.9 -99.99 -9.99
2019/05/26 04:12 EDT    3.27   3.78    6  251    8  61.5  63.3 1015.9 -9.9 -9.999 -99.9 -99.99 -9.99
2019/05/26 04:18 EDT    3.18   3.68    8  246    9  61.7  63.3 1015.6 -9.9 -9.999 -99.9 -99.99 -9.99
2019/05/26 04:24 EDT    3.09   3.59    8  254   10  61.7  63.3 1015.7 -9.9 -9.999 -99.9 -99.99 -9.99
2019/05/26 04:30 EDT    3.00   3.47    7  248    9  61.5  63.3 1015.6 -9.9 -9.999 -99.9 -99.99 -9.99
2019/05/26 04:36 EDT    2.90   3.36    8  242   11  61.7  63.3 1015.7 -9.9 -9.999 -99.9 -99.99 -9.99
2019/05/26 04:42 EDT    2.81   3.28    9  252   13  61.9  63.3 1015.7 -9.9 -9.999 -99.9 -99.99 -9.99
2019/05/26 04:48 EDT    2.73   3.16   11  254   13  61.9  63.5 1015.6 -9.9 -9.999 -99.9 -99.99 -9.99
2019/05/26 04:54 EDT    2.64   3.07   11  258   13  62.1  63.7 1015.6 -9.9 -9.999 -99.9 -99.99 -9.99
2019/05/26 05:00 EDT    2.55   2.94   12  259   14  62.2  63.9 1015.7 -9.9 -9.999 -99.9 -99.99 -9.99
2019/05/26 05:06 EDT    2.47   2.85   12  254   14  62.4  64.0 1015.6 -9.9 -9.999 -99.9 -99.99 -9.99
2019/05/26 05:12 EDT    2.39   2.78   11  257   15  63.0  64.2 1015.7 -9.9 -9.999 -99.9 -99.99 -9.99
2019/05/26 05:18 EDT    2.31   2.70   15  261   18  63.1  64.4 1015.8 -9.9 -9.999 -99.9 -99.99 -9.99
2019/05/26 05:24 EDT    2.23   2.61   14  260   17  63.0  64.6 1015.8 -9.9 -9.999 -99.9 -99.99 -9.99
2019/05/26 05:30 EDT    2.15   2.57   14  258   16  63.1  64.8 1015.8 -9.9 -9.999 -99.9 -99.99 -9.99
2019/05/26 05:36 EDT    2.08   2.49   15  259   19  63.3  64.9 1015.9 -9.9 -9.999 -99.9 -99.99 -9.99
2019/05/26 05:42 EDT    2.01   2.42   16  261   19  63.3  64.9 1016.0 -9.9 -9.999 -99.9 -99.99 -9.99
2019/05/26 05:48 EDT    1.94   2.36   16  262   20  63.3  64.9 1016.1 -9.9 -9.999 -99.9 -99.99 -9.99
2019/05/26 05:54 EDT    1.87   2.28   16  266   19  63.1  64.9 1016.0 -9.9 -9.999 -99.9 -99.99 -9.99
2019/05/26 06:00 EDT    1.81   2.21   17  264   20  63.1  64.9 1016.0 -9.9 -9.999 -99.9 -99.99 -9.99
2019/05/26 06:06 EDT    1.75   2.13   15  263   19  63.0  64.9 1015.9 -9.9 -9.999 -99.9 -99.99 -9.99
2019/05/26 06:12 EDT    1.69   2.04   14  256   17  63.0  64.9 1015.7 -9.9 -9.999 -99.9 -99.99 -9.99
2019/05/26 06:18 EDT    1.63   1.98   15  259   17  63.0  64.9 1016.0 -9.9 -9.999 -99.9 -99.99 -9.99
2019/05/26 06:24 EDT    1.57   1.90   14  262   17  63.1  64.9 1016.0 -9.9 -9.999 -99.9 -99.99 -9.99
2019/05/26 06:30 EDT    1.52   1.82   14  260   16  63.1  64.9 1015.8 -9.9 -9.999 -99.9 -99.99 -9.99
2019/05/26 06:36 EDT    1.46   1.72   14  260   16  63.3  64.9 1015.8 -9.9 -9.999 -99.9 -99.99 -9.99
2019/05/26 06:42 EDT    1.41   1.67   12  260   14  63.5  64.8 1015.8 -9.9 -9.999 -99.9 -99.99 -9.99
2019/05/26 06:48 EDT    1.36   1.61   13  260   15  63.5  64.8 1015.8 -9.9 -9.999 -99.9 -99.99 -9.99
2019/05/26 06:54 EDT    1.32   1.59   16  263   17  64.0  64.8 1015.7 -9.9 -9.999 -99.9 -99.99 -9.99
2019/05/26 07:00 EDT    1.27   1.51   16  264   18  64.2  64.8 1015.7 -9.9 -9.999 -99.9 -99.99 -9.99
2019/05/26 07:06 EDT    1.23   1.47   16  264   17  64.4  64.6 1015.7 -9.9 -9.999 -99.9 -99.99 -9.99
2019/05/26 07:12 EDT    1.18   1.44   16  260   18  64.4  64.6 1015.6 -9.9 -9.999 -99.9 -99.99 -9.99
2019/05/26 07:18 EDT    1.14   1.40   15  257   17  64.2  64.6 1015.4 -9.9 -9.999 -99.9 -99.99 -9.99
2019/05/26 07:24 EDT    1.11   1.38   16  262   17  64.4  64.6 1015.4 -9.9 -9.999 -99.9 -99.99 -9.99
2019/05/26 07:30 EDT    1.07   1.34   17  264   19  64.4  64.6 1015.4 -9.9 -9.999 -99.9 -99.99 -9.99
2019/05/26 07:36 EDT    1.04   1.34   17  264   19  64.4  64.4 1015.4 -9.9 -9.999 -99.9 -99.99 -9.99
2019/05/26 07:42 EDT    1.01   1.27   16  265   18  64.2  64.4 1015.5 -9.9 -9.999 -99.9 -99.99 -9.99
2019/05/26 07:48 EDT    0.98   1.26   17  266   19  64.4  64.4 1015.4 -9.9 -9.999 -99.9 -99.99 -9.99
2019/05/26 07:54 EDT    0.96   1.26   16  270   19  64.6  64.4 1015.6 -9.9 -9.999 -99.9 -99.99 -9.99
2019/05/26 08:00 EDT    0.94   1.23   14  272   18  64.4  64.4 1015.6 -9.9 -9.999 -99.9 -99.99 -9.99
2019/05/26 08:06 EDT    0.92   1.22   14  269   16  64.4  64.2 1015.4 -9.9 -9.999 -99.9 -99.99 -9.99
2019/05/26 08:12 EDT    0.91   1.17   13  267   15  64.2  64.2 1015.3 -9.9 -9.999 -99.9 -99.99 -9.99
2019/05/26 08:18 EDT    0.90   1.17   14  268   16  64.4  64.2 1015.5 -9.9 -9.999 -99.9 -99.99 -9.99
2019/05/26 08:24 EDT    0.89   1.18   13  271   16  64.6  64.2 1015.5 -9.9 -9.999 -99.9 -99.99 -9.99
2019/05/26 08:30 EDT    0.89   1.16   12  274   15  64.8  64.2 1015.6 -9.9 -9.999 -99.9 -99.99 -9.99
2019/05/26 08:36 EDT    0.90   1.14   11  276   14  64.8  64.2 1015.7 -9.9 -9.999 -99.9 -99.99 -9.99
2019/05/26 08:42 EDT    0.91   1.19   12  277   14  65.1  64.4 1015.6 -9.9 -9.999 -99.9 -99.99 -9.99
2019/05/26 08:48 EDT    0.92   1.22   12  274   14  64.9  64.4 1015.7 -9.9 -9.999 -99.9 -99.99 -9.99
2019/05/26 08:54 EDT    0.94   1.22   11  274   14  65.1  64.4 1015.8 -9.9 -9.999 -99.9 -99.99 -9.99
2019/05/26 09:00 EDT    0.96   1.25   10  276   12  65.3  64.4 1015.8 -9.9 -9.999 -99.9 -99.99 -9.99
2019/05/26 09:06 EDT    0.99   1.31    9  278   11  65.5  64.4 1015.8 -9.9 -9.999 -99.9 -99.99 -9.99
2019/05/26 09:12 EDT    1.02   1.34   10  275   12  65.7  64.4 1015.8 -9.9 -9.999 -99.9 -99.99 -9.99
2019/05/26 09:18 EDT    1.06   1.36   11  277   12  65.8  64.4 1015.8 -9.9 -9.999 -99.9 -99.99 -9.99
2019/05/26 09:24 EDT    1.10   1.44   11  279   12  66.2  64.2 1015.7 -9.9 -9.999 -99.9 -99.99 -9.99
2019/05/26 09:30 EDT    1.14   1.45   11  277   13  66.4  64.2 1015.6 -9.9 -9.999 -99.9 -99.99 -9.99
2019/05/26 09:36 EDT    1.19   1.53   11  277   13  66.7  64.2 1015.7 -9.9 -9.999 -99.9 -99.99 -9.99
2019/05/26 09:42 EDT    1.24   1.53   10  279   13  66.9  64.2 1015.7 -9.9 -9.999 -99.9 -99.99 -9.99
2019/05/26 09:48 EDT    1.30   1.63   10  283   11  67.3  64.0 1015.7 -9.9 -9.999 -99.9 -99.99 -9.99
2019/05/26 09:54 EDT    1.36   1.71    9  282   12  67.3  64.0 1015.7 -9.9 -9.999 -99.9 -99.99 -9.99
2019/05/26 10:00 EDT    1.42   1.78    8  286    9  67.6  64.0 1015.8 -9.9 -9.999 -99.9 -99.99 -9.99
2019/05/26 10:06 EDT    1.49   1.84    9  284   11  68.0  64.0 1015.7 -9.9 -9.999 -99.9 -99.99 -9.99
2019/05/26 10:12 EDT    1.56   1.99   10  286   11  68.4  64.0 1015.7 -9.9 -9.999 -99.9 -99.99 -9.99
2019/05/26 10:18 EDT    1.63   2.06    9  287   11  68.7  64.0 1015.7 -9.9 -9.999 -99.9 -99.99 -9.99
2019/05/26 10:24 EDT    1.70   2.13    9  287   11  68.7  64.0 1015.7 -9.9 -9.999 -99.9 -99.99 -9.99
2019/05/26 10:30 EDT    1.78   2.21    9  289   10  68.7  64.0 1015.7 -9.9 -9.999 -99.9 -99.99 -9.99
2019/05/26 10:36 EDT    1.85   2.34    8  287   11  68.9  63.9 1015.8 -9.9 -9.999 -99.9 -99.99 -9.99
2019/05/26 10:42 EDT    1.93   2.41   10  284   12  69.4  63.9 1015.7 -9.9 -9.999 -99.9 -99.99 -9.99
2019/05/26 10:48 EDT    2.00   2.48   10  275   11  69.3  63.9 1015.7 -9.9 -9.999 -99.9 -99.99 -9.99
2019/05/26 10:54 EDT    2.08   2.56    9  276   11  69.4  63.9 1015.7 -9.9 -9.999 -99.9 -99.99 -9.99
2019/05/26 11:00 EDT    2.16   2.66    9  262   11  69.6  63.7 1015.5 -9.9 -9.999 -99.9 -99.99 -9.99
2019/05/26 11:06 EDT    2.24   2.76    8  261    9  69.6  63.5 1015.5 -9.9 -9.999 -99.9 -99.99 -9.99
2019/05/26 11:12 EDT    2.31   2.85    8  267    9  69.8  63.3 1015.6 -9.9 -9.999 -99.9 -99.99 -9.99
2019/05/26 11:18 EDT    2.39   2.94    9  269   10  70.2  63.1 1015.4 -9.9 -9.999 -99.9 -99.99 -9.99
2019/05/26 11:24 EDT    2.47   3.04    7  265    9  70.3  63.1 1015.4 -9.9 -9.999 -99.9 -99.99 -9.99
2019/05/26 11:30 EDT    2.54   3.14    7  255    8  70.2  63.0 1015.3 -9.9 -9.999 -99.9 -99.99 -9.99
2019/05/26 11:36 EDT    2.62   3.19    7  257    8  70.7  63.1 1015.3 -9.9 -9.999 -99.9 -99.99 -9.99
2019/05/26 11:42 EDT    2.69   3.30    6  263    8  70.9  63.1 1015.3 -9.9 -9.999 -99.9 -99.99 -9.99
2019/05/26 11:48 EDT    2.77   3.43    7  262    8  71.1  63.0 1015.4 -9.9 -9.999 -99.9 -99.99 -9.99
2019/05/26 11:54 EDT    2.84   3.48    8  251    9  70.0  62.8 1015.3 -9.9 -9.999 -99.9 -99.99 -9.99
2019/05/26 12:00 EDT    2.91   3.56    9  266    9  70.5  62.8 1015.2 -9.9 -9.999 -99.9 -99.99 -9.99
2019/05/26 12:06 EDT    2.98   3.67    9  264    9  70.0  62.8 1015.2 -9.9 -9.999 -99.9 -99.99 -9.99
2019/05/26 12:12 EDT    3.05   3.74    9  274    9  70.9  62.8 1015.2 -9.9 -9.999 -99.9 -99.99 -9.99
2019/05/26 12:18 EDT    3.12   3.80    7  274    9  70.7  63.3 1015.1 -9.9 -9.999 -99.9 -99.99 -9.99
2019/05/26 12:24 EDT    3.19   3.86    8  267   10  71.2  63.7 1015.0 -9.9 -9.999 -99.9 -99.99 -9.99
2019/05/26 12:30 EDT    3.26   3.90   12  273   13  71.8  63.9 1015.0 -9.9 -9.999 -99.9 -99.99 -9.99
2019/05/26 12:36 EDT    3.32   3.94   12  275   13  72.5  63.9 1015.0 -9.9 -9.999 -99.9 -99.99 -9.99
2019/05/26 12:42 EDT    3.38   4.02   13  276   14  73.0  63.9 1015.1 -9.9 -9.999 -99.9 -99.99 -9.99
2019/05/26 12:48 EDT    3.45   4.10   12  272   14  72.7  63.7 1015.0 -9.9 -9.999 -99.9 -99.99 -9.99
2019/05/26 12:54 EDT    3.51   4.12   14  266   14  73.2  63.7 1015.0 -9.9 -9.999 -99.9 -99.99 -9.99
2019/05/26 13:00 EDT    3.57   4.16   13  265   14  73.0  63.7 1014.9 -9.9 -9.999 -99.9 -99.99 -9.99
2019/05/26 13:06 EDT    3.62   4.27   14  265   15  74.3  63.7 1014.8 -9.9 -9.999 -99.9 -99.99 -9.99
2019/05/26 13:12 EDT    3.68   4.34   12  266   15  73.9  63.7 1014.7 -9.9 -9.999 -99.9 -99.99 -9.99
2019/05/26 13:18 EDT    3.73   4.36   12  275   13  73.8  63.7 1014.6 -9.9 -9.999 -99.9 -99.99 -9.99
2019/05/26 13:24 EDT    3.78   4.39   13  279   15  74.5  63.5 1014.6 -9.9 -9.999 -99.9 -99.99 -9.99
2019/05/26 13:30 EDT    3.83   4.45   12  277   14  75.2  63.3 1014.6 -9.9 -9.999 -99.9 -99.99 -9.99
2019/05/26 13:36 EDT    3.88   4.50   12  281   14  75.7  63.1 1014.5 -9.9 -9.999 -99.9 -99.99 -9.99
2019/05/26 13:42 EDT    3.92   4.48   11  278   12  75.9  63.1 1014.5 -9.9 -9.999 -99.9 -99.99 -9.99
2019/05/26 13:48 EDT    3.96   4.52   10  276   12  76.8  63.0 1014.3 -9.9 -9.999 -99.9 -99.99 -9.99
2019/05/26 13:54 EDT    4.00   4.54    9  269   10  77.2  62.8 1014.2 -9.9 -9.999 -99.9 -99.99 -9.99
2019/05/26 14:00 EDT    4.03   4.54    9  269   10  76.8  62.6 1014.1 -9.9 -9.999 -99.9 -99.99 -9.99
2019/05/26 14:06 EDT    4.06   4.57    9  271    9  77.5  62.6 1014.0 -9.9 -9.999 -99.9 -99.99 -9.99
2019/05/26 14:12 EDT    4.08   4.60    7  266    8  76.3  62.4 1013.9 -9.9 -9.999 -99.9 -99.99 -9.99
2019/05/26 14:18 EDT    4.10   4.61    6  261    7  76.6  62.4 1013.8 -9.9 -9.999 -99.9 -99.99 -9.99
2019/05/26 14:24 EDT    4.12   4.62    7  256    7  76.3  62.6 1013.6 -9.9 -9.999 -99.9 -99.99 -9.99
2019/05/26 14:30 EDT    4.13   4.68    9  252   10  77.2  62.6 1013.5 -9.9 -9.999 -99.9 -99.99 -9.99
2019/05/26 14:36 EDT    4.14   4.71    7  254   10  80.6  62.6 1013.4 -9.9 -9.999 -99.9 -99.99 -9.99
2019/05/26 14:42 EDT    4.14   4.73    5  254    8  80.4  62.6 1013.3 -9.9 -9.999 -99.9 -99.99 -9.99
2019/05/26 14:48 EDT    4.13   4.73    5  258    7  80.1  62.6 1013.3 -9.9 -9.999 -99.9 -99.99 -9.99
2019/05/26 14:54 EDT    4.12   4.76    5  265    6  80.6  62.4 1013.3 -9.9 -9.999 -99.9 -99.99 -9.99
2019/05/26 15:00 EDT    4.11   4.75    7  274    8  79.7  62.6 1013.4 -9.9 -9.999 -99.9 -99.99 -9.99
2019/05/26 15:06 EDT    4.09   4.73    6  268    8  77.4  62.4 1013.3 -9.9 -9.999 -99.9 -99.99 -9.99
2019/05/26 15:12 EDT    4.06   4.69    5  216    8  77.0  62.4 1013.3 -9.9 -9.999 -99.9 -99.99 -9.99
2019/05/26 15:18 EDT    4.03   4.66    4  204    7  77.5  62.4 1013.2 -9.9 -9.999 -99.9 -99.99 -9.99
2019/05/26 15:24 EDT    3.99   4.60    6  189    7  76.3  62.4 1013.2 -9.9 -9.999 -99.9 -99.99 -9.99
2019/05/26 15:30 EDT    3.95   4.58    7  230   10  78.8  62.2 1013.2 -9.9 -9.999 -99.9 -99.99 -9.99
2019/05/26 15:36 EDT    3.91   4.52    8  262   12  78.1  62.4 1013.2 -9.9 -9.999 -99.9 -99.99 -9.99
2019/05/26 15:42 EDT    3.86   4.49   11  265   13  76.3  62.2 1013.1 -9.9 -9.999 -99.9 -99.99 -9.99
2019/05/26 15:48 EDT    3.80   4.44   12  265   13  76.8  62.2 1013.1 -9.9 -9.999 -99.9 -99.99 -9.99
2019/05/26 15:54 EDT    3.75   4.40   12  268   13  77.4  62.1 1013.0 -9.9 -9.999 -99.9 -99.99 -9.99
2019/05/26 16:00 EDT    3.69   4.37   11  272   14  76.1  62.1 1012.9 -9.9 -9.999 -99.9 -99.99 -9.99
2019/05/26 16:06 EDT    3.63   4.32   11  270   12  75.6  61.7 1012.8 -9.9 -9.999 -99.9 -99.99 -9.99
2019/05/26 16:12 EDT    3.56   4.28   10  277   11  75.6  61.2 1012.6 -9.9 -9.999 -99.9 -99.99 -9.99
2019/05/26 16:18 EDT    3.49   4.21   11  276   12  76.5  61.3 1012.5 -9.9 -9.999 -99.9 -99.99 -9.99
2019/05/26 16:24 EDT    3.42   4.15   11  274   12  75.7  61.9 1012.5 -9.9 -9.999 -99.9 -99.99 -9.99
2019/05/26 16:30 EDT    3.35   4.07    9  270   10  75.0  62.1 1012.3 -9.9 -9.999 -99.9 -99.99 -9.99
2019/05/26 16:36 EDT    3.28   3.99   11  274   12  75.6  62.4 1012.4 -9.9 -9.999 -99.9 -99.99 -9.99
2019/05/26 16:42 EDT    3.21   3.90   12  270   13  75.6  62.6 1012.5 -9.9 -9.999 -99.9 -99.99 -9.99
2019/05/26 16:48 EDT    3.14   3.85   13  268   14  74.8  62.6 1012.6 -9.9 -9.999 -99.9 -99.99 -9.99
2019/05/26 16:54 EDT    3.07   3.76   14  271   15  75.9  62.6 1012.6 -9.9 -9.999 -99.9 -99.99 -9.99
2019/05/26 17:00 EDT    3.00   3.67   13  274   15  75.6  62.6 1012.5 -9.9 -9.999 -99.9 -99.99 -9.99
2019/05/26 17:06 EDT    2.93   3.59   12  268   14  75.2  62.6 1012.5 -9.9 -9.999 -99.9 -99.99 -9.99
2019/05/26 17:12 EDT    2.86   3.53   11  269   13  76.1  62.6 1012.5 -9.9 -9.999 -99.9 -99.99 -9.99
2019/05/26 17:18 EDT    2.79   3.45   11  273   12  75.6  62.4 1012.5 -9.9 -9.999 -99.9 -99.99 -9.99
2019/05/26 17:24 EDT    2.73   3.37   10  276   12  74.1  62.4 1012.6 -9.9 -9.999 -99.9 -99.99 -9.99
2019/05/26 17:30 EDT    2.66   3.32   10  277   11  73.8  62.4 1012.5 -9.9 -9.999 -99.9 -99.99 -9.99
2019/05/26 17:36 EDT    2.60   3.23   11  268   13  73.0  62.4 1012.7 -9.9 -9.999 -99.9 -99.99 -9.99
2019/05/26 17:42 EDT    2.54   3.16   19  276   21  74.7  62.6 1013.1 -9.9 -9.999 -99.9 -99.99 -9.99
2019/05/26 17:48 EDT    2.48   3.02   15  293   22  73.4  62.6 1013.1 -9.9 -9.999 -99.9 -99.99 -9.99
2019/05/26 17:54 EDT    2.42   2.95   14  321   17  75.9  62.6 1012.8 -9.9 -9.999 -99.9 -99.99 -9.99
2019/05/26 18:00 EDT    2.37   2.99   11  333   16  74.1  62.4 1012.8 -9.9 -9.999 -99.9 -99.99 -9.99
2019/05/26 18:06 EDT    2.32   2.82   10  339   12  73.9  62.4 1012.7 -9.9 -9.999 -99.9 -99.99 -9.99
2019/05/26 18:12 EDT    2.27   2.77   10  322   12  75.4  62.4 1012.8 -9.9 -9.999 -99.9 -99.99 -9.99
2019/05/26 18:18 EDT    2.22   2.75   11  319   13  74.5  62.4 1012.9 -9.9 -9.999 -99.9 -99.99 -9.99
2019/05/26 18:24 EDT    2.17   2.65   10  319   12  74.3  62.4 1013.0 -9.9 -9.999 -99.9 -99.99 -9.99
2019/05/26 18:30 EDT    2.12   2.58   12  325   15  72.1  62.4 1013.1 -9.9 -9.999 -99.9 -99.99 -9.99
2019/05/26 18:36 EDT    2.08   2.50    9  329   13  72.7  62.4 1013.1 -9.9 -9.999 -99.9 -99.99 -9.99
2019/05/26 18:42 EDT    2.03   2.47   10  341   13  71.4  62.4 1013.1 -9.9 -9.999 -99.9 -99.99 -9.99
2019/05/26 18:48 EDT    1.99   2.38   11  340   14  72.0  63.5 1013.2 -9.9 -9.999 -99.9 -99.99 -9.99
2019/05/26 18:54 EDT    1.95   2.33   12  340   14  70.7  65.3 1013.2 -9.9 -9.999 -99.9 -99.99 -9.99
2019/05/26 19:00 EDT    1.91   2.33   10  349   16  69.3  65.7 1013.3 -9.9 -9.999 -99.9 -99.99 -9.99
2019/05/26 19:06 EDT    1.87   2.30    6    0   16  69.1  65.8 1013.1 -9.9 -9.999 -99.9 -99.99 -9.99
2019/05/26 19:12 EDT    1.83   2.25    6    0   11  68.7  65.3 1013.2 -9.9 -9.999 -99.9 -99.99 -9.99
2019/05/26 19:18 EDT    1.80   2.22    5    6   11  69.3  64.9 1013.0 -9.9 -9.999 -99.9 -99.99 -9.99
2019/05/26 19:24 EDT    1.76   2.20    4    7    7  69.6  65.3 1013.0 -9.9 -9.999 -99.9 -99.99 -9.99
2019/05/26 19:30 EDT    1.73   2.16    5    8    6  69.8  65.3 1013.1 -9.9 -9.999 -99.9 -99.99 -9.99
2019/05/26 19:36 EDT    1.69   2.08    4    5    6  70.0  64.6 1013.1 -9.9 -9.999 -99.9 -99.99 -9.99
2019/05/26 19:42 EDT    1.66   2.08    2  341    4  70.0  64.2 1013.0 -9.9 -9.999 -99.9 -99.99 -9.99
2019/05/26 19:48 EDT    1.63   2.05    1  322    3  69.4  64.2 1012.9 -9.9 -9.999 -99.9 -99.99 -9.99
2019/05/26 19:54 EDT    1.60   2.01    2  270    4  67.8  64.0 1012.9 -9.9 -9.999 -99.9 -99.99 -9.99
2019/05/26 20:00 EDT    1.58   1.96    3  196    4  66.7  64.0 1013.0 -9.9 -9.999 -99.9 -99.99 -9.99
2019/05/26 20:06 EDT    1.55   1.97    5  216    6  67.1  64.0 1013.1 -9.9 -9.999 -99.9 -99.99 -9.99
2019/05/26 20:12 EDT    1.53   1.95    6  226    6  67.3  63.7 1013.1 -9.9 -9.999 -99.9 -99.99 -9.99
2019/05/26 20:18 EDT    1.51   1.93    7  234    7  67.6  63.3 1013.0 -9.9 -9.999 -99.9 -99.99 -9.99
2019/05/26 20:24 EDT    1.49   1.90    7  232    7  67.8  63.1 1013.0 -9.9 -9.999 -99.9 -99.99 -9.99
2019/05/26 20:30 EDT    1.48   1.91    6  230    7  67.6  63.1 1013.1 -9.9 -9.999 -99.9 -99.99 -9.99
2019/05/26 20:36 EDT    1.47   1.84    5  238    6  68.2  63.0 1013.1 -9.9 -9.999 -99.9 -99.99 -9.99
2019/05/26 20:42 EDT    1.46   1.84    3  240    5  68.4  63.0 1013.0 -9.9 -9.999 -99.9 -99.99 -9.99
2019/05/26 20:48 EDT    1.46   1.82    2  253    3  68.0  63.0 1013.0 -9.9 -9.999 -99.9 -99.99 -9.99
2019/05/26 20:54 EDT    1.46   1.81    3  233    4  67.8  63.0 1012.9 -9.9 -9.999 -99.9 -99.99 -9.99
2019/05/26 21:00 EDT    1.46   1.77    3  226    3  67.8  63.3 1012.9 -9.9 -9.999 -99.9 -99.99 -9.99
2019/05/26 21:06 EDT    1.47   1.80    2  203    3  67.8  63.5 1012.9 -9.9 -9.999 -99.9 -99.99 -9.99
2019/05/26 21:12 EDT    1.48   1.76    0  133    3  68.0  63.5 1013.0 -9.9 -9.999 -99.9 -99.99 -9.99
2019/05/26 21:18 EDT    1.50   1.78    1  206    2  68.4  63.3 1013.2 -9.9 -9.999 -99.9 -99.99 -9.99
2019/05/26 21:24 EDT    1.52   1.80    2  263    3  68.2  63.1 1013.2 -9.9 -9.999 -99.9 -99.99 -9.99
2019/05/26 21:30 EDT    1.55   1.83    4  277    4  68.4  62.8 1013.2 -9.9 -9.999 -99.9 -99.99 -9.99
2019/05/26 21:36 EDT    1.58   1.87    4  302    5  68.7  62.6 1013.4 -9.9 -9.999 -99.9 -99.99 -9.99
2019/05/26 21:42 EDT    1.61   1.91    5  287    6  68.0  62.4 1013.5 -9.9 -9.999 -99.9 -99.99 -9.99
2019/05/26 21:48 EDT    1.65   1.97    6  278    6  67.5  62.4 1013.5 -9.9 -9.999 -99.9 -99.99 -9.99
2019/05/26 21:54 EDT    1.70   2.04    4  281    6  67.1  62.2 1013.5 -9.9 -9.999 -99.9 -99.99 -9.99
2019/05/26 22:00 EDT    1.74   2.08    5  270    5  66.7  62.2 1013.5 -9.9 -9.999 -99.9 -99.99 -9.99
2019/05/26 22:06 EDT    1.80   2.14    2  286    5  66.4  62.2 1013.4 -9.9 -9.999 -99.9 -99.99 -9.99
2019/05/26 22:12 EDT    1.85   2.18    4  279    5  66.4  62.1 1013.4 -9.9 -9.999 -99.9 -99.99 -9.99
2019/05/26 22:18 EDT    1.91   2.25    5  282    5  66.4  62.1 1013.5 -9.9 -9.999 -99.9 -99.99 -9.99
2019/05/26 22:24 EDT    1.97   2.31    5  279    6  66.0  62.1 1013.4 -9.9 -9.999 -99.9 -99.99 -9.99
2019/05/26 22:30 EDT    2.03   2.37    5  282    7  66.0  62.2 1013.5 -9.9 -9.999 -99.9 -99.99 -9.99
2019/05/26 22:36 EDT    2.10   2.43    7  279    8  66.0  62.4 1013.4 -9.9 -9.999 -99.9 -99.99 -9.99
2019/05/26 22:42 EDT    2.17   2.49    6  252    7  65.8  62.4 1013.3 -9.9 -9.999 -99.9 -99.99 -9.99
2019/05/26 22:48 EDT    2.24   2.58    8  252    9  66.9  62.2 1013.2 -9.9 -9.999 -99.9 -99.99 -9.99
2019/05/26 22:54 EDT    2.31   2.65    9  249   10  67.5  62.2 1013.0 -9.9 -9.999 -99.9 -99.99 -9.99
2019/05/26 23:00 EDT    2.38   2.74    6  235    8  66.9  62.2 1012.9 -9.9 -9.999 -99.9 -99.99 -9.99
2019/05/26 23:06 EDT    2.46   2.83    7  231    8  67.5  62.4 1012.9 -9.9 -9.999 -99.9 -99.99 -9.99
2019/05/26 23:12 EDT    2.53   2.92    5  241    7  67.5  62.8 1013.0 -9.9 -9.999 -99.9 -99.99 -9.99
2019/05/26 23:18 EDT    2.61   3.00    3  276    4  67.1  63.0 1013.0 -9.9 -9.999 -99.9 -99.99 -9.99
2019/05/26 23:24 EDT    2.68   3.12    3  282    4  67.3  63.1 1012.9 -9.9 -9.999 -99.9 -99.99 -9.99
2019/05/26 23:30 EDT    2.76   3.21    4  285    5  67.3  63.3 1013.0 -9.9 -9.999 -99.9 -99.99 -9.99
2019/05/26 23:36 EDT    2.83   3.30    5  287    6  67.3  63.3 1013.0 -9.9 -9.999 -99.9 -99.99 -9.99
2019/05/26 23:42 EDT    2.90   3.37    7  288    8  67.3  63.3 1013.1 -9.9 -9.999 -99.9 -99.99 -9.99
2019/05/26 23:48 EDT    2.98   3.46    9  294   10  67.8  63.3 1013.2 -9.9 -9.999 -99.9 -99.99 -9.99
2019/05/26 23:54 EDT    3.05   3.55    9  299   10  68.2  63.5 1013.3 -9.9 -9.999 -99.9 -99.99 -9.99
2019/05/27 00:00 EDT    3.12   3.63    9  296   10  68.0  63.5 1013.4 -9.9 -9.999 -99.9 -99.99 -9.99
2019/05/27 00:06 EDT    3.19   3.68    9  291   11  67.8  63.1 1013.4 -9.9 -9.999 -99.9 -99.99 -9.99
2019/05/27 00:12 EDT    3.26   3.79    9  303   10  67.6  63.9 1013.3 -9.9 -9.999 -99.9 -99.99 -9.99
2019/05/27 00:18 EDT    3.33   3.86    9  306   10  67.8  64.2 1013.2 -9.9 -9.999 -99.9 -99.99 -9.99
2019/05/27 00:24 EDT    3.40   3.91   10  311   11  68.4  64.4 1013.3 -9.9 -9.999 -99.9 -99.99 -9.99
2019/05/27 00:30 EDT    3.46   3.97   10  311   11  68.7  64.4 1013.2 -9.9 -9.999 -99.9 -99.99 -9.99
2019/05/27 00:36 EDT    3.52   4.09   10  310   12  69.1  64.4 1013.1 -9.9 -9.999 -99.9 -99.99 -9.99
2019/05/27 00:42 EDT    3.59   4.14   11  311   13  69.4  64.0 1013.1 -9.9 -9.999 -99.9 -99.99 -9.99
2019/05/27 00:48 EDT    3.65   4.19   13  311   13  69.4  64.0 1013.1 -9.9 -9.999 -99.9 -99.99 -9.99
2019/05/27 00:54 EDT    3.71   4.27   12  312   15  69.4  63.9 1013.1 -9.9 -9.999 -99.9 -99.99 -9.99
2019/05/27 01:00 EDT    3.76   4.35   13  312   15  69.6  63.9 1013.0 -9.9 -9.999 -99.9 -99.99 -9.99
2019/05/27 01:06 EDT    3.82   4.42   14  312   16  69.6  63.7 1013.0 -9.9 -9.999 -99.9 -99.99 -9.99
2019/05/27 01:12 EDT    3.87   4.47   14  311   17  69.4  63.7 1013.0 -9.9 -9.999 -99.9 -99.99 -9.99
2019/05/27 01:18 EDT    3.93   4.53   14  308   16  68.2  63.7 1013.0 -9.9 -9.999 -99.9 -99.99 -9.99
2019/05/27 01:24 EDT    3.98   4.57   13  308   15  67.6  63.9 1013.0 -9.9 -9.999 -99.9 -99.99 -9.99
2019/05/27 01:30 EDT    4.03   4.62   13  306   15  67.8  64.0 1012.9 -9.9 -9.999 -99.9 -99.99 -9.99
2019/05/27 01:36 EDT    4.07   4.67   12  308   15  67.3  64.0 1012.9 -9.9 -9.999 -99.9 -99.99 -9.99
2019/05/27 01:42 EDT    4.11   4.69   12  306   13  66.9  64.2 1012.9 -9.9 -9.999 -99.9 -99.99 -9.99
2019/05/27 01:48 EDT    4.16   4.68   11  308   13  67.1  64.2 1012.8 -9.9 -9.999 -99.9 -99.99 -9.99
2019/05/27 01:54 EDT    4.19   4.73   11  311   14  68.2  64.2 1012.8 -9.9 -9.999 -99.9 -99.99 -9.99
2019/05/27 02:00 EDT    4.23   4.73   11  317   13  68.5  64.2 1012.8 -9.9 -9.999 -99.9 -99.99 -9.99
2019/05/27 02:06 EDT    4.26   4.76   10  321   13  68.2  64.2 1012.6 -9.9 -9.999 -99.9 -99.99 -9.99
2019/05/27 02:12 EDT    4.29   4.78   11  331   14  69.1  64.4 1012.6 -9.9 -9.999 -99.9 -99.99 -9.99
2019/05/27 02:18 EDT    4.31   4.80   10  334   14  69.4  64.4 1012.7 -9.9 -9.999 -99.9 -99.99 -9.99
2019/05/27 02:24 EDT    4.33   4.80   12  333   14  68.9  64.4 1012.7 -9.9 -9.999 -99.9 -99.99 -9.99
2019/05/27 02:30 EDT    4.35   4.83   10  334   14  68.9  64.4 1012.7 -9.9 -9.999 -99.9 -99.99 -9.99
2019/05/27 02:36 EDT    4.36   4.83    9  337   12  69.1  64.4 1012.8 -9.9 -9.999 -99.9 -99.99 -9.99
2019/05/27 02:42 EDT    4.37   4.83    7  343   13  68.9  64.6 1012.9 -9.9 -9.999 -99.9 -99.99 -9.99
2019/05/27 02:48 EDT    4.37   4.81    6  345    9  68.5  64.6 1012.9 -9.9 -9.999 -99.9 -99.99 -9.99
2019/05/27 02:54 EDT    4.37   4.83    6  346    9  68.4  64.6 1012.9 -9.9 -9.999 -99.9 -99.99 -9.99
2019/05/27 03:00 EDT    4.36   4.80    5  343    9  68.0  64.6 1012.9 -9.9 -9.999 -99.9 -99.99 -9.99
2019/05/27 03:06 EDT    4.35   4.78    5  354    8  68.0  64.4 1013.0 -9.9 -9.999 -99.9 -99.99 -9.99
2019/05/27 03:12 EDT    4.33   4.78    4    4    9  67.6  64.4 1013.1 -9.9 -9.999 -99.9 -99.99 -9.99
2019/05/27 03:18 EDT    4.31   4.77    2  359    5  67.3  63.7 1013.2 -9.9 -9.999 -99.9 -99.99 -9.99
2019/05/27 03:24 EDT    4.28   4.73    2   12    3  66.9  63.3 1013.2 -9.9 -9.999 -99.9 -99.99 -9.99
2019/05/27 03:30 EDT    4.25   4.71    2   28    3  66.7  62.8 1013.2 -9.9 -9.999 -99.9 -99.99 -9.99
2019/05/27 03:36 EDT    4.21   4.68    1   15    3  66.9  62.2 1013.2 -9.9 -9.999 -99.9 -99.99 -9.99
2019/05/27 03:42 EDT    4.16   4.66    2   48    4  66.7  61.9 1013.2 -9.9 -9.999 -99.9 -99.99 -9.99
2019/05/27 03:48 EDT    4.11   4.65    1    5    4  66.9  61.7 1013.1 -9.9 -9.999 -99.9 -99.99 -9.99
2019/05/27 03:54 EDT    4.06   4.59    2   33    3  66.7  61.7 1013.0 -9.9 -9.999 -99.9 -99.99 -9.99
2019/05/27 04:00 EDT    4.00   4.51    3   14    4  67.8  61.7 1013.0 -9.9 -9.999 -99.9 -99.99 -9.99
2019/05/27 04:06 EDT    3.94   4.45    2  358    4  67.6  61.5 1013.0 -9.9 -9.999 -99.9 -99.99 -9.99
2019/05/27 04:12 EDT    3.87   4.42    3  322    5  67.3  61.5 1013.1 -9.9 -9.999 -99.9 -99.99 -9.99
2019/05/27 04:18 EDT    3.80   4.28    3  325    7  67.1  61.7 1013.3 -9.9 -9.999 -99.9 -99.99 -9.99
2019/05/27 04:24 EDT    3.73   4.21    3  347    5  67.3  61.7 1013.1 -9.9 -9.999 -99.9 -99.99 -9.99
2019/05/27 04:30 EDT    3.65   4.14    3  336    4  66.9  61.9 1013.2 -9.9 -9.999 -99.9 -99.99 -9.99
2019/05/27 04:36 EDT    3.57   4.07    3  295    3  66.2  62.1 1013.6 -9.9 -9.999 -99.9 -99.99 -9.99
2019/05/27 04:42 EDT    3.49   3.96    3  325    4  65.3  62.1 1013.7 -9.9 -9.999 -99.9 -99.99 -9.99
2019/05/27 04:48 EDT    3.41   3.85    3  343    4  65.7  62.1 1013.8 -9.9 -9.999 -99.9 -99.99 -9.99
2019/05/27 04:54 EDT    3.32   3.80    5  339    6  65.5  62.1 1013.9 -9.9 -9.999 -99.9 -99.99 -9.99
2019/05/27 05:00 EDT    3.24   3.73    4  354    6  65.5  62.1 1013.9 -9.9 -9.999 -99.9 -99.99 -9.99
2019/05/27 05:06 EDT    3.15   3.62    4  338    5  65.7  62.2 1013.9 -9.9 -9.999 -99.9 -99.99 -9.99
2019/05/27 05:12 EDT    3.07   3.59    5  334    6  65.3  62.2 1013.9 -9.9 -9.999 -99.9 -99.99 -9.99
2019/05/27 05:18 EDT    2.98   3.50    6  337    7  65.3  62.2 1013.8 -9.9 -9.999 -99.9 -99.99 -9.99
2019/05/27 05:24 EDT    2.90   3.42    7  327    8  64.8  62.4 1014.1 -9.9 -9.999 -99.9 -99.99 -9.99
2019/05/27 05:30 EDT    2.81   3.39    6  331    7  65.1  62.4 1014.1 -9.9 -9.999 -99.9 -99.99 -9.99
2019/05/27 05:36 EDT    2.73   3.33    6  326    7  64.9  62.4 1014.1 -9.9 -9.999 -99.9 -99.99 -9.99
2019/05/27 05:42 EDT    2.65   3.21    8  327    9  64.4  62.6 1014.0 -9.9 -9.999 -99.9 -99.99 -9.99
2019/05/27 05:48 EDT    2.57   3.14    8  332    9  64.4  62.6 1014.0 -9.9 -9.999 -99.9 -99.99 -9.99
2019/05/27 05:54 EDT    2.49   3.09    7  336    9  64.8  62.6 1014.0 -9.9 -9.999 -99.9 -99.99 -9.99
2019/05/27 06:00 EDT    2.42   3.01    8  340    9  64.9  62.8 1014.0 -9.9 -9.999 -99.9 -99.99 -9.99
2019/05/27 06:06 EDT    2.34   2.89    7  344    9  65.1  62.8 1014.0 -9.9 -9.999 -99.9 -99.99 -9.99
2019/05/27 06:12 EDT    2.27   2.81    5  347    7  65.1  62.8 1013.9 -9.9 -9.999 -99.9 -99.99 -9.99
2019/05/27 06:18 EDT    2.20   2.73    4  335    7  65.5  63.0 1014.1 -9.9 -9.999 -99.9 -99.99 -9.99
2019/05/27 06:24 EDT    2.13   2.63    4  324    6  65.7  63.0 1014.1 -9.9 -9.999 -99.9 -99.99 -9.99
2019/05/27 06:30 EDT    2.06   2.53    4  326    5  65.8  63.0 1014.1 -9.9 -9.999 -99.9 -99.99 -9.99
2019/05/27 06:36 EDT    2.00   2.46    6  323    7  65.7  63.0 1014.0 -9.9 -9.999 -99.9 -99.99 -9.99
2019/05/27 06:42 EDT    1.94   2.37    5  324    7  65.7  63.0 1014.0 -9.9 -9.999 -99.9 -99.99 -9.99
2019/05/27 06:48 EDT    1.87   2.31    5  325    6  66.0  63.0 1014.1 -9.9 -9.999 -99.9 -99.99 -9.99
2019/05/27 06:54 EDT    1.81   2.26    5  321    6  66.2  63.1 1014.2 -9.9 -9.999 -99.9 -99.99 -9.99
2019/05/27 07:00 EDT    1.76   2.18    6  318    7  65.8  63.1 1014.4 -9.9 -9.999 -99.9 -99.99 -9.99
2019/05/27 07:06 EDT    1.70   2.11    5  320    7  65.8  63.1 1014.5 -9.9 -9.999 -99.9 -99.99 -9.99
2019/05/27 07:12 EDT    1.64   2.05    6  323    8  65.8  63.3 1014.6 -9.9 -9.999 -99.9 -99.99 -9.99
2019/05/27 07:18 EDT    1.59   1.96    8  325    9  65.7  63.3 1014.7 -9.9 -9.999 -99.9 -99.99 -9.99
2019/05/27 07:24 EDT    1.54   1.95    6  326    9  65.7  63.3 1014.9 -9.9 -9.999 -99.9 -99.99 -9.99
2019/05/27 07:30 EDT    1.48   1.86    8  337   10  65.8  63.3 1014.9 -9.9 -9.999 -99.9 -99.99 -9.99
2019/05/27 07:36 EDT    1.43   1.78    7  332   10  65.8  63.3 1015.0 -9.9 -9.999 -99.9 -99.99 -9.99
2019/05/27 07:42 EDT    1.38   1.73    8  332    9  65.7  63.1 1015.1 -9.9 -9.999 -99.9 -99.99 -9.99
2019/05/27 07:48 EDT    1.34   1.73    9  327   11  65.5  63.1 1015.2 -9.9 -9.999 -99.9 -99.99 -9.99
2019/05/27 07:54 EDT    1.29   1.66    8  326   10  65.7  63.1 1015.2 -9.9 -9.999 -99.9 -99.99 -9.99
2019/05/27 08:00 EDT    1.24   1.58    8  335   11  66.0  63.1 1015.4 -9.9 -9.999 -99.9 -99.99 -9.99

Revised: 08/08/2018
NOAA / National Ocean Service
Web site owner: Center for Operational Oceanographic Products and Services